<?xml version="1.0" encoding="UTF-8" standalone="no" ?>
<gpx xmlns="http://www.topografix.com/GPX/1/1" xmlns:xsi="http://www.w3.org/2001/XMLSchema-instance" xsi:schemaLocation="http://www.topografix.com/GPX/1/1 http://www.topografix.com/GPX/1/1/gpx.xsd" version="1.1" creator="VisuGPX - https://www.visugpx.com">
  <metadata>
    <name>Les gorges de Trevans</name>
  </metadata>
  <trk>
    <name><![CDATA[29/10/2019 09:52:46 les gorges de trevans]]></name>
    <extensions>
      <line xmlns="http://www.topografix.com/GPX/gpx_style/0/2">
        <color>0000FF</color>
        <width>4</width>
      </line>
    </extensions>
    <trkseg>
      <trkpt lat="43.94774" lon="6.22165">
        <ele>600.79998779297</ele>
        <time>2019-10-29T08:52:46Z</time>
      </trkpt>
      <trkpt lat="43.94774" lon="6.22165">
        <ele>600.79998779297</ele>
        <time>2019-10-29T08:52:47Z</time>
      </trkpt>
      <trkpt lat="43.94781" lon="6.22172">
        <ele>600.79998779297</ele>
        <time>2019-10-29T08:53:09Z</time>
      </trkpt>
      <trkpt lat="43.94784" lon="6.22175">
        <ele>601.40002441406</ele>
        <time>2019-10-29T08:53:32Z</time>
      </trkpt>
      <trkpt lat="43.9478" lon="6.22179">
        <ele>601.20001220703</ele>
        <time>2019-10-29T08:54:03Z</time>
      </trkpt>
      <trkpt lat="43.94778" lon="6.2218">
        <ele>600.59997558594</ele>
        <time>2019-10-29T08:54:27Z</time>
      </trkpt>
      <trkpt lat="43.94788" lon="6.22176">
        <ele>600.79998779297</ele>
        <time>2019-10-29T08:54:43Z</time>
      </trkpt>
      <trkpt lat="43.94792" lon="6.22177">
        <ele>601.20001220703</ele>
        <time>2019-10-29T08:54:47Z</time>
      </trkpt>
      <trkpt lat="43.94805" lon="6.2218">
        <ele>602</ele>
        <time>2019-10-29T08:54:58Z</time>
      </trkpt>
      <trkpt lat="43.94822" lon="6.22192">
        <ele>603.20001220703</ele>
        <time>2019-10-29T08:55:18Z</time>
      </trkpt>
      <trkpt lat="43.94823" lon="6.22197">
        <ele>603.59997558594</ele>
        <time>2019-10-29T08:55:30Z</time>
      </trkpt>
      <trkpt lat="43.94829" lon="6.22222">
        <ele>604.59997558594</ele>
        <time>2019-10-29T08:55:49Z</time>
      </trkpt>
      <trkpt lat="43.94825" lon="6.2223">
        <ele>604.79998779297</ele>
        <time>2019-10-29T08:56:00Z</time>
      </trkpt>
      <trkpt lat="43.94816" lon="6.22246">
        <ele>603.79998779297</ele>
        <time>2019-10-29T08:56:17Z</time>
      </trkpt>
      <trkpt lat="43.94808" lon="6.22269">
        <ele>602</ele>
        <time>2019-10-29T08:56:37Z</time>
      </trkpt>
      <trkpt lat="43.94808" lon="6.22273">
        <ele>601.79998779297</ele>
        <time>2019-10-29T08:56:39Z</time>
      </trkpt>
      <trkpt lat="43.94808" lon="6.22291">
        <ele>601</ele>
        <time>2019-10-29T08:56:52Z</time>
      </trkpt>
      <trkpt lat="43.94809" lon="6.22294">
        <ele>600.79998779297</ele>
        <time>2019-10-29T08:56:54Z</time>
      </trkpt>
      <trkpt lat="43.94807" lon="6.22317">
        <ele>599.20001220703</ele>
        <time>2019-10-29T08:57:12Z</time>
      </trkpt>
      <trkpt lat="43.94805" lon="6.22344">
        <ele>598.20001220703</ele>
        <time>2019-10-29T08:57:31Z</time>
      </trkpt>
      <trkpt lat="43.94806" lon="6.22361">
        <ele>597.59997558594</ele>
        <time>2019-10-29T08:57:41Z</time>
      </trkpt>
      <trkpt lat="43.94808" lon="6.22376">
        <ele>597.20001220703</ele>
        <time>2019-10-29T08:57:51Z</time>
      </trkpt>
      <trkpt lat="43.94809" lon="6.22402">
        <ele>597.40002441406</ele>
        <time>2019-10-29T08:58:09Z</time>
      </trkpt>
      <trkpt lat="43.94809" lon="6.22413">
        <ele>597.40002441406</ele>
        <time>2019-10-29T08:58:15Z</time>
      </trkpt>
      <trkpt lat="43.94807" lon="6.22432">
        <ele>597.20001220703</ele>
        <time>2019-10-29T08:58:28Z</time>
      </trkpt>
      <trkpt lat="43.94803" lon="6.22449">
        <ele>597.20001220703</ele>
        <time>2019-10-29T08:58:40Z</time>
      </trkpt>
      <trkpt lat="43.94797" lon="6.22476">
        <ele>597.59997558594</ele>
        <time>2019-10-29T08:58:57Z</time>
      </trkpt>
      <trkpt lat="43.94797" lon="6.22478">
        <ele>597.59997558594</ele>
        <time>2019-10-29T08:58:58Z</time>
      </trkpt>
      <trkpt lat="43.94793" lon="6.22501">
        <ele>598.20001220703</ele>
        <time>2019-10-29T08:59:15Z</time>
      </trkpt>
      <trkpt lat="43.94787" lon="6.22514">
        <ele>598.79998779297</ele>
        <time>2019-10-29T08:59:26Z</time>
      </trkpt>
      <trkpt lat="43.94786" lon="6.22517">
        <ele>598.79998779297</ele>
        <time>2019-10-29T08:59:28Z</time>
      </trkpt>
      <trkpt lat="43.94777" lon="6.2253">
        <ele>599.40002441406</ele>
        <time>2019-10-29T08:59:43Z</time>
      </trkpt>
      <trkpt lat="43.9476" lon="6.22552">
        <ele>599.79998779297</ele>
        <time>2019-10-29T09:00:05Z</time>
      </trkpt>
      <trkpt lat="43.94746" lon="6.22562">
        <ele>600.20001220703</ele>
        <time>2019-10-29T09:00:23Z</time>
      </trkpt>
      <trkpt lat="43.94737" lon="6.22552">
        <ele>601.59997558594</ele>
        <time>2019-10-29T09:00:40Z</time>
      </trkpt>
      <trkpt lat="43.94726" lon="6.22543">
        <ele>601.79998779297</ele>
        <time>2019-10-29T09:01:03Z</time>
      </trkpt>
      <trkpt lat="43.94724" lon="6.22553">
        <ele>602.59997558594</ele>
        <time>2019-10-29T09:01:44Z</time>
      </trkpt>
      <trkpt lat="43.94724" lon="6.22551">
        <ele>602.59997558594</ele>
        <time>2019-10-29T09:02:09Z</time>
      </trkpt>
      <trkpt lat="43.94723" lon="6.22561">
        <ele>602.59997558594</ele>
        <time>2019-10-29T09:03:15Z</time>
      </trkpt>
      <trkpt lat="43.94721" lon="6.22569">
        <ele>602.20001220703</ele>
        <time>2019-10-29T09:04:02Z</time>
      </trkpt>
      <trkpt lat="43.94714" lon="6.22578">
        <ele>601.59997558594</ele>
        <time>2019-10-29T09:04:24Z</time>
      </trkpt>
      <trkpt lat="43.94701" lon="6.22597">
        <ele>601.79998779297</ele>
        <time>2019-10-29T09:04:47Z</time>
      </trkpt>
      <trkpt lat="43.94697" lon="6.2262">
        <ele>601.79998779297</ele>
        <time>2019-10-29T09:05:03Z</time>
      </trkpt>
      <trkpt lat="43.94692" lon="6.22642">
        <ele>602.20001220703</ele>
        <time>2019-10-29T09:05:19Z</time>
      </trkpt>
      <trkpt lat="43.94696" lon="6.22666">
        <ele>602.59997558594</ele>
        <time>2019-10-29T09:05:39Z</time>
      </trkpt>
      <trkpt lat="43.94698" lon="6.22671">
        <ele>603</ele>
        <time>2019-10-29T09:05:44Z</time>
      </trkpt>
      <trkpt lat="43.94705" lon="6.22686">
        <ele>603.79998779297</ele>
        <time>2019-10-29T09:05:58Z</time>
      </trkpt>
      <trkpt lat="43.94705" lon="6.22693">
        <ele>604</ele>
        <time>2019-10-29T09:06:02Z</time>
      </trkpt>
      <trkpt lat="43.9471" lon="6.227">
        <ele>604.59997558594</ele>
        <time>2019-10-29T09:06:08Z</time>
      </trkpt>
      <trkpt lat="43.94711" lon="6.22702">
        <ele>604.79998779297</ele>
        <time>2019-10-29T09:06:10Z</time>
      </trkpt>
      <trkpt lat="43.94715" lon="6.22704">
        <ele>604.79998779297</ele>
        <time>2019-10-29T09:06:13Z</time>
      </trkpt>
      <trkpt lat="43.94718" lon="6.22707">
        <ele>604.79998779297</ele>
        <time>2019-10-29T09:06:16Z</time>
      </trkpt>
      <trkpt lat="43.9472" lon="6.22711">
        <ele>605</ele>
        <time>2019-10-29T09:06:20Z</time>
      </trkpt>
      <trkpt lat="43.94724" lon="6.22737">
        <ele>605.40002441406</ele>
        <time>2019-10-29T09:06:37Z</time>
      </trkpt>
      <trkpt lat="43.94726" lon="6.22755">
        <ele>606.20001220703</ele>
        <time>2019-10-29T09:06:51Z</time>
      </trkpt>
      <trkpt lat="43.94743" lon="6.22775">
        <ele>607</ele>
        <time>2019-10-29T09:07:15Z</time>
      </trkpt>
      <trkpt lat="43.94759" lon="6.22795">
        <ele>607.59997558594</ele>
        <time>2019-10-29T09:07:36Z</time>
      </trkpt>
      <trkpt lat="43.9476" lon="6.228">
        <ele>607.59997558594</ele>
        <time>2019-10-29T09:07:39Z</time>
      </trkpt>
      <trkpt lat="43.94761" lon="6.22802">
        <ele>607.79998779297</ele>
        <time>2019-10-29T09:07:41Z</time>
      </trkpt>
      <trkpt lat="43.94774" lon="6.22815">
        <ele>608.40002441406</ele>
        <time>2019-10-29T09:07:55Z</time>
      </trkpt>
      <trkpt lat="43.94786" lon="6.22834">
        <ele>609</ele>
        <time>2019-10-29T09:08:11Z</time>
      </trkpt>
      <trkpt lat="43.94784" lon="6.22852">
        <ele>609.59997558594</ele>
        <time>2019-10-29T09:08:26Z</time>
      </trkpt>
      <trkpt lat="43.94774" lon="6.22873">
        <ele>610.79998779297</ele>
        <time>2019-10-29T09:08:47Z</time>
      </trkpt>
      <trkpt lat="43.94765" lon="6.22893">
        <ele>611.40002441406</ele>
        <time>2019-10-29T09:09:07Z</time>
      </trkpt>
      <trkpt lat="43.9476" lon="6.2292">
        <ele>612.59997558594</ele>
        <time>2019-10-29T09:09:30Z</time>
      </trkpt>
      <trkpt lat="43.94749" lon="6.22942">
        <ele>613.59997558594</ele>
        <time>2019-10-29T09:09:50Z</time>
      </trkpt>
      <trkpt lat="43.9474" lon="6.22971">
        <ele>615</ele>
        <time>2019-10-29T09:10:13Z</time>
      </trkpt>
      <trkpt lat="43.94732" lon="6.22992">
        <ele>616</ele>
        <time>2019-10-29T09:10:30Z</time>
      </trkpt>
      <trkpt lat="43.94729" lon="6.23018">
        <ele>617</ele>
        <time>2019-10-29T09:10:49Z</time>
      </trkpt>
      <trkpt lat="43.94726" lon="6.23037">
        <ele>618</ele>
        <time>2019-10-29T09:11:03Z</time>
      </trkpt>
      <trkpt lat="43.94725" lon="6.23054">
        <ele>618.59997558594</ele>
        <time>2019-10-29T09:11:14Z</time>
      </trkpt>
      <trkpt lat="43.94726" lon="6.23075">
        <ele>619.40002441406</ele>
        <time>2019-10-29T09:11:30Z</time>
      </trkpt>
      <trkpt lat="43.94726" lon="6.23085">
        <ele>619.79998779297</ele>
        <time>2019-10-29T09:11:37Z</time>
      </trkpt>
      <trkpt lat="43.94723" lon="6.23092">
        <ele>620.20001220703</ele>
        <time>2019-10-29T09:11:43Z</time>
      </trkpt>
      <trkpt lat="43.9472" lon="6.23099">
        <ele>620.40002441406</ele>
        <time>2019-10-29T09:11:49Z</time>
      </trkpt>
      <trkpt lat="43.94716" lon="6.23135">
        <ele>620.40002441406</ele>
        <time>2019-10-29T09:12:13Z</time>
      </trkpt>
      <trkpt lat="43.94713" lon="6.23158">
        <ele>620.20001220703</ele>
        <time>2019-10-29T09:12:33Z</time>
      </trkpt>
      <trkpt lat="43.94725" lon="6.23188">
        <ele>620.40002441406</ele>
        <time>2019-10-29T09:12:57Z</time>
      </trkpt>
      <trkpt lat="43.9472" lon="6.23192">
        <ele>620.59997558594</ele>
        <time>2019-10-29T09:13:16Z</time>
      </trkpt>
      <trkpt lat="43.9471" lon="6.2321">
        <ele>621</ele>
        <time>2019-10-29T09:13:35Z</time>
      </trkpt>
      <trkpt lat="43.94711" lon="6.23215">
        <ele>621.40002441406</ele>
        <time>2019-10-29T09:13:42Z</time>
      </trkpt>
      <trkpt lat="43.94708" lon="6.2322">
        <ele>621.40002441406</ele>
        <time>2019-10-29T09:13:48Z</time>
      </trkpt>
      <trkpt lat="43.94706" lon="6.23223">
        <ele>621.20001220703</ele>
        <time>2019-10-29T09:13:52Z</time>
      </trkpt>
      <trkpt lat="43.947" lon="6.23227">
        <ele>620.20001220703</ele>
        <time>2019-10-29T09:13:59Z</time>
      </trkpt>
      <trkpt lat="43.94696" lon="6.23226">
        <ele>619.40002441406</ele>
        <time>2019-10-29T09:14:05Z</time>
      </trkpt>
      <trkpt lat="43.9469" lon="6.23226">
        <ele>618.59997558594</ele>
        <time>2019-10-29T09:14:11Z</time>
      </trkpt>
      <trkpt lat="43.94679" lon="6.23232">
        <ele>619</ele>
        <time>2019-10-29T09:14:32Z</time>
      </trkpt>
      <trkpt lat="43.94677" lon="6.2325">
        <ele>620</ele>
        <time>2019-10-29T09:15:07Z</time>
      </trkpt>
      <trkpt lat="43.94681" lon="6.23275">
        <ele>621.40002441406</ele>
        <time>2019-10-29T09:15:34Z</time>
      </trkpt>
      <trkpt lat="43.9468" lon="6.23292">
        <ele>622.20001220703</ele>
        <time>2019-10-29T09:15:55Z</time>
      </trkpt>
      <trkpt lat="43.94689" lon="6.23289">
        <ele>621.59997558594</ele>
        <time>2019-10-29T09:16:14Z</time>
      </trkpt>
      <trkpt lat="43.94696" lon="6.23294">
        <ele>621.20001220703</ele>
        <time>2019-10-29T09:16:20Z</time>
      </trkpt>
      <trkpt lat="43.94693" lon="6.23293">
        <ele>620.59997558594</ele>
        <time>2019-10-29T09:16:29Z</time>
      </trkpt>
      <trkpt lat="43.94676" lon="6.23307">
        <ele>623.79998779297</ele>
        <time>2019-10-29T09:16:51Z</time>
      </trkpt>
      <trkpt lat="43.94668" lon="6.23324">
        <ele>621.40002441406</ele>
        <time>2019-10-29T09:17:13Z</time>
      </trkpt>
      <trkpt lat="43.94669" lon="6.23323">
        <ele>621.20001220703</ele>
        <time>2019-10-29T09:17:21Z</time>
      </trkpt>
      <trkpt lat="43.94667" lon="6.23323">
        <ele>621</ele>
        <time>2019-10-29T09:17:24Z</time>
      </trkpt>
      <trkpt lat="43.94672" lon="6.23334">
        <ele>621.79998779297</ele>
        <time>2019-10-29T09:17:48Z</time>
      </trkpt>
      <trkpt lat="43.94671" lon="6.23331">
        <ele>622</ele>
        <time>2019-10-29T09:18:07Z</time>
      </trkpt>
      <trkpt lat="43.94662" lon="6.23334">
        <ele>622</ele>
        <time>2019-10-29T09:18:25Z</time>
      </trkpt>
      <trkpt lat="43.94651" lon="6.23339">
        <ele>622</ele>
        <time>2019-10-29T09:18:41Z</time>
      </trkpt>
      <trkpt lat="43.9466" lon="6.2333">
        <ele>622.20001220703</ele>
        <time>2019-10-29T09:18:52Z</time>
      </trkpt>
      <trkpt lat="43.94662" lon="6.2333">
        <ele>621.59997558594</ele>
        <time>2019-10-29T09:19:38Z</time>
      </trkpt>
      <trkpt lat="43.94663" lon="6.23317">
        <ele>621.20001220703</ele>
        <time>2019-10-29T09:20:08Z</time>
      </trkpt>
      <trkpt lat="43.94664" lon="6.23315">
        <ele>621.20001220703</ele>
        <time>2019-10-29T09:20:10Z</time>
      </trkpt>
      <trkpt lat="43.94675" lon="6.23302">
        <ele>621.20001220703</ele>
        <time>2019-10-29T09:20:34Z</time>
      </trkpt>
      <trkpt lat="43.94677" lon="6.23334">
        <ele>623.79998779297</ele>
        <time>2019-10-29T09:20:57Z</time>
      </trkpt>
      <trkpt lat="43.9468" lon="6.23341">
        <ele>625.79998779297</ele>
        <time>2019-10-29T09:21:09Z</time>
      </trkpt>
      <trkpt lat="43.94684" lon="6.23338">
        <ele>626.20001220703</ele>
        <time>2019-10-29T09:21:15Z</time>
      </trkpt>
      <trkpt lat="43.94695" lon="6.23339">
        <ele>628.79998779297</ele>
        <time>2019-10-29T09:21:31Z</time>
      </trkpt>
      <trkpt lat="43.94721" lon="6.23337">
        <ele>632</ele>
        <time>2019-10-29T09:21:59Z</time>
      </trkpt>
      <trkpt lat="43.94728" lon="6.23348">
        <ele>635.20001220703</ele>
        <time>2019-10-29T09:22:24Z</time>
      </trkpt>
      <trkpt lat="43.94728" lon="6.23351">
        <ele>638.20001220703</ele>
        <time>2019-10-29T09:22:47Z</time>
      </trkpt>
      <trkpt lat="43.94725" lon="6.23361">
        <ele>641.20001220703</ele>
        <time>2019-10-29T09:23:11Z</time>
      </trkpt>
      <trkpt lat="43.94724" lon="6.23358">
        <ele>641.79998779297</ele>
        <time>2019-10-29T09:24:08Z</time>
      </trkpt>
      <trkpt lat="43.94726" lon="6.23365">
        <ele>643</ele>
        <time>2019-10-29T09:24:35Z</time>
      </trkpt>
      <trkpt lat="43.94727" lon="6.23382">
        <ele>646.20001220703</ele>
        <time>2019-10-29T09:25:02Z</time>
      </trkpt>
      <trkpt lat="43.94729" lon="6.23391">
        <ele>649.20001220703</ele>
        <time>2019-10-29T09:25:22Z</time>
      </trkpt>
      <trkpt lat="43.94737" lon="6.23392">
        <ele>652.20001220703</ele>
        <time>2019-10-29T09:25:44Z</time>
      </trkpt>
      <trkpt lat="43.94732" lon="6.23404">
        <ele>655.20001220703</ele>
        <time>2019-10-29T09:26:07Z</time>
      </trkpt>
      <trkpt lat="43.9473" lon="6.23413">
        <ele>657.20001220703</ele>
        <time>2019-10-29T09:26:25Z</time>
      </trkpt>
      <trkpt lat="43.94721" lon="6.23422">
        <ele>660.20001220703</ele>
        <time>2019-10-29T09:26:57Z</time>
      </trkpt>
      <trkpt lat="43.9472" lon="6.23427">
        <ele>663.40002441406</ele>
        <time>2019-10-29T09:27:18Z</time>
      </trkpt>
      <trkpt lat="43.94721" lon="6.23431">
        <ele>664.59997558594</ele>
        <time>2019-10-29T09:27:27Z</time>
      </trkpt>
      <trkpt lat="43.94721" lon="6.23447">
        <ele>667.79998779297</ele>
        <time>2019-10-29T09:27:51Z</time>
      </trkpt>
      <trkpt lat="43.94726" lon="6.23458">
        <ele>670.40002441406</ele>
        <time>2019-10-29T09:28:16Z</time>
      </trkpt>
      <trkpt lat="43.94724" lon="6.23468">
        <ele>673.40002441406</ele>
        <time>2019-10-29T09:28:40Z</time>
      </trkpt>
      <trkpt lat="43.94723" lon="6.23481">
        <ele>675.79998779297</ele>
        <time>2019-10-29T09:28:59Z</time>
      </trkpt>
      <trkpt lat="43.94731" lon="6.23489">
        <ele>678</ele>
        <time>2019-10-29T09:29:18Z</time>
      </trkpt>
      <trkpt lat="43.94737" lon="6.23499">
        <ele>681</ele>
        <time>2019-10-29T09:29:41Z</time>
      </trkpt>
      <trkpt lat="43.94737" lon="6.23509">
        <ele>683.79998779297</ele>
        <time>2019-10-29T09:30:05Z</time>
      </trkpt>
      <trkpt lat="43.94746" lon="6.23516">
        <ele>686.40002441406</ele>
        <time>2019-10-29T09:30:23Z</time>
      </trkpt>
      <trkpt lat="43.94749" lon="6.23517">
        <ele>687.59997558594</ele>
        <time>2019-10-29T09:30:50Z</time>
      </trkpt>
      <trkpt lat="43.94748" lon="6.2352">
        <ele>688.40002441406</ele>
        <time>2019-10-29T09:32:09Z</time>
      </trkpt>
      <trkpt lat="43.9475" lon="6.23535">
        <ele>688.40002441406</ele>
        <time>2019-10-29T09:32:37Z</time>
      </trkpt>
      <trkpt lat="43.94755" lon="6.23552">
        <ele>688.59997558594</ele>
        <time>2019-10-29T09:32:53Z</time>
      </trkpt>
      <trkpt lat="43.94758" lon="6.23564">
        <ele>689.40002441406</ele>
        <time>2019-10-29T09:33:08Z</time>
      </trkpt>
      <trkpt lat="43.94755" lon="6.23585">
        <ele>692.40002441406</ele>
        <time>2019-10-29T09:33:34Z</time>
      </trkpt>
      <trkpt lat="43.9475" lon="6.23592">
        <ele>694.20001220703</ele>
        <time>2019-10-29T09:33:54Z</time>
      </trkpt>
      <trkpt lat="43.9475" lon="6.23606">
        <ele>694.20001220703</ele>
        <time>2019-10-29T09:34:10Z</time>
      </trkpt>
      <trkpt lat="43.9475" lon="6.23608">
        <ele>694.20001220703</ele>
        <time>2019-10-29T09:34:12Z</time>
      </trkpt>
      <trkpt lat="43.94754" lon="6.23623">
        <ele>694.20001220703</ele>
        <time>2019-10-29T09:34:27Z</time>
      </trkpt>
      <trkpt lat="43.94756" lon="6.23633">
        <ele>694.20001220703</ele>
        <time>2019-10-29T09:34:36Z</time>
      </trkpt>
      <trkpt lat="43.94757" lon="6.23645">
        <ele>694.59997558594</ele>
        <time>2019-10-29T09:34:47Z</time>
      </trkpt>
      <trkpt lat="43.94758" lon="6.23657">
        <ele>694.79998779297</ele>
        <time>2019-10-29T09:35:00Z</time>
      </trkpt>
      <trkpt lat="43.94761" lon="6.23666">
        <ele>693.59997558594</ele>
        <time>2019-10-29T09:35:16Z</time>
      </trkpt>
      <trkpt lat="43.94767" lon="6.23677">
        <ele>691.40002441406</ele>
        <time>2019-10-29T09:35:35Z</time>
      </trkpt>
      <trkpt lat="43.94773" lon="6.2369">
        <ele>689.59997558594</ele>
        <time>2019-10-29T09:36:06Z</time>
      </trkpt>
      <trkpt lat="43.94775" lon="6.237">
        <ele>688.40002441406</ele>
        <time>2019-10-29T09:36:31Z</time>
      </trkpt>
      <trkpt lat="43.94781" lon="6.23707">
        <ele>687.79998779297</ele>
        <time>2019-10-29T09:37:06Z</time>
      </trkpt>
      <trkpt lat="43.94781" lon="6.23719">
        <ele>685.20001220703</ele>
        <time>2019-10-29T09:37:27Z</time>
      </trkpt>
      <trkpt lat="43.94781" lon="6.23731">
        <ele>682.59997558594</ele>
        <time>2019-10-29T09:37:44Z</time>
      </trkpt>
      <trkpt lat="43.94782" lon="6.23743">
        <ele>679.59997558594</ele>
        <time>2019-10-29T09:38:04Z</time>
      </trkpt>
      <trkpt lat="43.94783" lon="6.23756">
        <ele>676.59997558594</ele>
        <time>2019-10-29T09:38:28Z</time>
      </trkpt>
      <trkpt lat="43.94786" lon="6.23771">
        <ele>673.59997558594</ele>
        <time>2019-10-29T09:38:52Z</time>
      </trkpt>
      <trkpt lat="43.94788" lon="6.23783">
        <ele>670.59997558594</ele>
        <time>2019-10-29T09:39:13Z</time>
      </trkpt>
      <trkpt lat="43.94786" lon="6.23798">
        <ele>667.59997558594</ele>
        <time>2019-10-29T09:39:37Z</time>
      </trkpt>
      <trkpt lat="43.94793" lon="6.23811">
        <ele>664.79998779297</ele>
        <time>2019-10-29T09:40:00Z</time>
      </trkpt>
      <trkpt lat="43.94796" lon="6.23828">
        <ele>661.79998779297</ele>
        <time>2019-10-29T09:40:29Z</time>
      </trkpt>
      <trkpt lat="43.94804" lon="6.2384">
        <ele>658.79998779297</ele>
        <time>2019-10-29T09:40:50Z</time>
      </trkpt>
      <trkpt lat="43.94815" lon="6.23855">
        <ele>655.79998779297</ele>
        <time>2019-10-29T09:41:12Z</time>
      </trkpt>
      <trkpt lat="43.9481" lon="6.23853">
        <ele>653.59997558594</ele>
        <time>2019-10-29T09:41:38Z</time>
      </trkpt>
      <trkpt lat="43.94808" lon="6.23855">
        <ele>653.40002441406</ele>
        <time>2019-10-29T09:41:40Z</time>
      </trkpt>
      <trkpt lat="43.94819" lon="6.23862">
        <ele>650.59997558594</ele>
        <time>2019-10-29T09:42:11Z</time>
      </trkpt>
      <trkpt lat="43.94822" lon="6.23873">
        <ele>652</ele>
        <time>2019-10-29T09:43:03Z</time>
      </trkpt>
      <trkpt lat="43.94827" lon="6.23885">
        <ele>652.20001220703</ele>
        <time>2019-10-29T09:43:24Z</time>
      </trkpt>
      <trkpt lat="43.94824" lon="6.23904">
        <ele>652</ele>
        <time>2019-10-29T09:43:51Z</time>
      </trkpt>
      <trkpt lat="43.9482" lon="6.23922">
        <ele>651.20001220703</ele>
        <time>2019-10-29T09:44:16Z</time>
      </trkpt>
      <trkpt lat="43.94819" lon="6.23922">
        <ele>651</ele>
        <time>2019-10-29T09:44:24Z</time>
      </trkpt>
      <trkpt lat="43.94816" lon="6.23925">
        <ele>651</ele>
        <time>2019-10-29T09:44:36Z</time>
      </trkpt>
      <trkpt lat="43.94815" lon="6.23924">
        <ele>651.20001220703</ele>
        <time>2019-10-29T09:45:20Z</time>
      </trkpt>
      <trkpt lat="43.94821" lon="6.23909">
        <ele>651.79998779297</ele>
        <time>2019-10-29T09:45:44Z</time>
      </trkpt>
      <trkpt lat="43.94826" lon="6.23895">
        <ele>652.20001220703</ele>
        <time>2019-10-29T09:46:09Z</time>
      </trkpt>
      <trkpt lat="43.94822" lon="6.23905">
        <ele>652.20001220703</ele>
        <time>2019-10-29T09:46:34Z</time>
      </trkpt>
      <trkpt lat="43.94821" lon="6.23907">
        <ele>652.20001220703</ele>
        <time>2019-10-29T09:46:36Z</time>
      </trkpt>
      <trkpt lat="43.94815" lon="6.23913">
        <ele>651.40002441406</ele>
        <time>2019-10-29T09:46:44Z</time>
      </trkpt>
      <trkpt lat="43.94812" lon="6.23915">
        <ele>650.79998779297</ele>
        <time>2019-10-29T09:46:49Z</time>
      </trkpt>
      <trkpt lat="43.94801" lon="6.23911">
        <ele>649</ele>
        <time>2019-10-29T09:47:23Z</time>
      </trkpt>
      <trkpt lat="43.94801" lon="6.23912">
        <ele>649</ele>
        <time>2019-10-29T09:47:24Z</time>
      </trkpt>
      <trkpt lat="43.94802" lon="6.23917">
        <ele>649.20001220703</ele>
        <time>2019-10-29T09:47:30Z</time>
      </trkpt>
      <trkpt lat="43.94803" lon="6.23916">
        <ele>649.59997558594</ele>
        <time>2019-10-29T09:47:39Z</time>
      </trkpt>
      <trkpt lat="43.94799" lon="6.23909">
        <ele>649.79998779297</ele>
        <time>2019-10-29T09:47:57Z</time>
      </trkpt>
      <trkpt lat="43.94793" lon="6.23901">
        <ele>651.20001220703</ele>
        <time>2019-10-29T09:48:10Z</time>
      </trkpt>
      <trkpt lat="43.94775" lon="6.23892">
        <ele>654.40002441406</ele>
        <time>2019-10-29T09:48:41Z</time>
      </trkpt>
      <trkpt lat="43.94773" lon="6.23892">
        <ele>654.59997558594</ele>
        <time>2019-10-29T09:48:43Z</time>
      </trkpt>
      <trkpt lat="43.94752" lon="6.23883">
        <ele>657.40002441406</ele>
        <time>2019-10-29T09:49:09Z</time>
      </trkpt>
      <trkpt lat="43.94738" lon="6.23875">
        <ele>659.79998779297</ele>
        <time>2019-10-29T09:49:34Z</time>
      </trkpt>
      <trkpt lat="43.94722" lon="6.23865">
        <ele>662.20001220703</ele>
        <time>2019-10-29T09:50:00Z</time>
      </trkpt>
      <trkpt lat="43.94715" lon="6.23859">
        <ele>664</ele>
        <time>2019-10-29T09:50:17Z</time>
      </trkpt>
      <trkpt lat="43.94708" lon="6.23855">
        <ele>665</ele>
        <time>2019-10-29T09:50:31Z</time>
      </trkpt>
      <trkpt lat="43.94689" lon="6.23832">
        <ele>668</ele>
        <time>2019-10-29T09:51:02Z</time>
      </trkpt>
      <trkpt lat="43.9468" lon="6.23814">
        <ele>670.79998779297</ele>
        <time>2019-10-29T09:51:25Z</time>
      </trkpt>
      <trkpt lat="43.94671" lon="6.23785">
        <ele>673.20001220703</ele>
        <time>2019-10-29T09:51:56Z</time>
      </trkpt>
      <trkpt lat="43.94661" lon="6.23766">
        <ele>676</ele>
        <time>2019-10-29T09:52:22Z</time>
      </trkpt>
      <trkpt lat="43.94654" lon="6.23743">
        <ele>679</ele>
        <time>2019-10-29T09:52:50Z</time>
      </trkpt>
      <trkpt lat="43.94653" lon="6.23722">
        <ele>681.20001220703</ele>
        <time>2019-10-29T09:53:17Z</time>
      </trkpt>
      <trkpt lat="43.9465" lon="6.23718">
        <ele>683.59997558594</ele>
        <time>2019-10-29T09:53:44Z</time>
      </trkpt>
      <trkpt lat="43.94648" lon="6.23714">
        <ele>683.40002441406</ele>
        <time>2019-10-29T09:54:40Z</time>
      </trkpt>
      <trkpt lat="43.94638" lon="6.23705">
        <ele>684.59997558594</ele>
        <time>2019-10-29T09:55:07Z</time>
      </trkpt>
      <trkpt lat="43.9463" lon="6.23697">
        <ele>685.79998779297</ele>
        <time>2019-10-29T09:55:21Z</time>
      </trkpt>
      <trkpt lat="43.94635" lon="6.2368">
        <ele>688</ele>
        <time>2019-10-29T09:55:46Z</time>
      </trkpt>
      <trkpt lat="43.94643" lon="6.23663">
        <ele>690</ele>
        <time>2019-10-29T09:56:07Z</time>
      </trkpt>
      <trkpt lat="43.94646" lon="6.2364">
        <ele>692.79998779297</ele>
        <time>2019-10-29T09:56:32Z</time>
      </trkpt>
      <trkpt lat="43.94649" lon="6.23631">
        <ele>694.59997558594</ele>
        <time>2019-10-29T09:56:55Z</time>
      </trkpt>
      <trkpt lat="43.94643" lon="6.23628">
        <ele>696</ele>
        <time>2019-10-29T09:57:14Z</time>
      </trkpt>
      <trkpt lat="43.94636" lon="6.23644">
        <ele>698.40002441406</ele>
        <time>2019-10-29T09:57:41Z</time>
      </trkpt>
      <trkpt lat="43.94631" lon="6.23649">
        <ele>699.59997558594</ele>
        <time>2019-10-29T09:57:50Z</time>
      </trkpt>
      <trkpt lat="43.94622" lon="6.23654">
        <ele>701.59997558594</ele>
        <time>2019-10-29T09:58:16Z</time>
      </trkpt>
      <trkpt lat="43.94612" lon="6.23658">
        <ele>703</ele>
        <time>2019-10-29T09:58:57Z</time>
      </trkpt>
      <trkpt lat="43.94604" lon="6.23664">
        <ele>704.59997558594</ele>
        <time>2019-10-29T09:59:19Z</time>
      </trkpt>
      <trkpt lat="43.94598" lon="6.23662">
        <ele>705.59997558594</ele>
        <time>2019-10-29T09:59:47Z</time>
      </trkpt>
      <trkpt lat="43.94588" lon="6.23672">
        <ele>707.40002441406</ele>
        <time>2019-10-29T10:00:12Z</time>
      </trkpt>
      <trkpt lat="43.94584" lon="6.23686">
        <ele>708.79998779297</ele>
        <time>2019-10-29T10:00:31Z</time>
      </trkpt>
      <trkpt lat="43.94582" lon="6.23689">
        <ele>709.40002441406</ele>
        <time>2019-10-29T10:00:38Z</time>
      </trkpt>
      <trkpt lat="43.94582" lon="6.23715">
        <ele>711</ele>
        <time>2019-10-29T10:00:59Z</time>
      </trkpt>
      <trkpt lat="43.94576" lon="6.23724">
        <ele>713.40002441406</ele>
        <time>2019-10-29T10:01:22Z</time>
      </trkpt>
      <trkpt lat="43.94564" lon="6.23736">
        <ele>716.40002441406</ele>
        <time>2019-10-29T10:01:56Z</time>
      </trkpt>
      <trkpt lat="43.94563" lon="6.23739">
        <ele>716.59997558594</ele>
        <time>2019-10-29T10:02:00Z</time>
      </trkpt>
      <trkpt lat="43.94558" lon="6.23748">
        <ele>717.79998779297</ele>
        <time>2019-10-29T10:02:14Z</time>
      </trkpt>
      <trkpt lat="43.94557" lon="6.2375">
        <ele>718</ele>
        <time>2019-10-29T10:02:16Z</time>
      </trkpt>
      <trkpt lat="43.94554" lon="6.23754">
        <ele>718.59997558594</ele>
        <time>2019-10-29T10:02:22Z</time>
      </trkpt>
      <trkpt lat="43.94536" lon="6.2377">
        <ele>721.40002441406</ele>
        <time>2019-10-29T10:02:54Z</time>
      </trkpt>
      <trkpt lat="43.94518" lon="6.23778">
        <ele>724.20001220703</ele>
        <time>2019-10-29T10:03:22Z</time>
      </trkpt>
      <trkpt lat="43.94507" lon="6.23788">
        <ele>727</ele>
        <time>2019-10-29T10:03:50Z</time>
      </trkpt>
      <trkpt lat="43.94493" lon="6.23802">
        <ele>729.20001220703</ele>
        <time>2019-10-29T10:04:17Z</time>
      </trkpt>
      <trkpt lat="43.9448" lon="6.23808">
        <ele>731.20001220703</ele>
        <time>2019-10-29T10:04:39Z</time>
      </trkpt>
      <trkpt lat="43.94465" lon="6.23814">
        <ele>733.20001220703</ele>
        <time>2019-10-29T10:05:02Z</time>
      </trkpt>
      <trkpt lat="43.94446" lon="6.23815">
        <ele>735</ele>
        <time>2019-10-29T10:05:30Z</time>
      </trkpt>
      <trkpt lat="43.94433" lon="6.23813">
        <ele>736.40002441406</ele>
        <time>2019-10-29T10:05:50Z</time>
      </trkpt>
      <trkpt lat="43.9442" lon="6.23813">
        <ele>738</ele>
        <time>2019-10-29T10:06:12Z</time>
      </trkpt>
      <trkpt lat="43.94412" lon="6.23825">
        <ele>738.40002441406</ele>
        <time>2019-10-29T10:06:33Z</time>
      </trkpt>
      <trkpt lat="43.94397" lon="6.2383">
        <ele>738.59997558594</ele>
        <time>2019-10-29T10:06:52Z</time>
      </trkpt>
      <trkpt lat="43.94393" lon="6.23834">
        <ele>739.20001220703</ele>
        <time>2019-10-29T10:07:09Z</time>
      </trkpt>
      <trkpt lat="43.94384" lon="6.23837">
        <ele>739</ele>
        <time>2019-10-29T10:07:26Z</time>
      </trkpt>
      <trkpt lat="43.94381" lon="6.23847">
        <ele>739.20001220703</ele>
        <time>2019-10-29T10:07:52Z</time>
      </trkpt>
      <trkpt lat="43.94367" lon="6.23857">
        <ele>740.20001220703</ele>
        <time>2019-10-29T10:08:12Z</time>
      </trkpt>
      <trkpt lat="43.94356" lon="6.23853">
        <ele>742.40002441406</ele>
        <time>2019-10-29T10:08:32Z</time>
      </trkpt>
      <trkpt lat="43.94344" lon="6.23853">
        <ele>744.40002441406</ele>
        <time>2019-10-29T10:08:51Z</time>
      </trkpt>
      <trkpt lat="43.94334" lon="6.2386">
        <ele>746</ele>
        <time>2019-10-29T10:09:09Z</time>
      </trkpt>
      <trkpt lat="43.94333" lon="6.23872">
        <ele>747.40002441406</ele>
        <time>2019-10-29T10:09:28Z</time>
      </trkpt>
      <trkpt lat="43.94342" lon="6.23887">
        <ele>747.20001220703</ele>
        <time>2019-10-29T10:09:50Z</time>
      </trkpt>
      <trkpt lat="43.94348" lon="6.23913">
        <ele>746</ele>
        <time>2019-10-29T10:10:14Z</time>
      </trkpt>
      <trkpt lat="43.94359" lon="6.23928">
        <ele>745.40002441406</ele>
        <time>2019-10-29T10:10:36Z</time>
      </trkpt>
      <trkpt lat="43.94367" lon="6.23947">
        <ele>747</ele>
        <time>2019-10-29T10:10:59Z</time>
      </trkpt>
      <trkpt lat="43.94365" lon="6.23969">
        <ele>749</ele>
        <time>2019-10-29T10:11:19Z</time>
      </trkpt>
      <trkpt lat="43.94365" lon="6.23975">
        <ele>749.79998779297</ele>
        <time>2019-10-29T10:11:28Z</time>
      </trkpt>
      <trkpt lat="43.94355" lon="6.23992">
        <ele>752</ele>
        <time>2019-10-29T10:11:50Z</time>
      </trkpt>
      <trkpt lat="43.94341" lon="6.24003">
        <ele>755</ele>
        <time>2019-10-29T10:12:16Z</time>
      </trkpt>
      <trkpt lat="43.94334" lon="6.24019">
        <ele>756.79998779297</ele>
        <time>2019-10-29T10:12:38Z</time>
      </trkpt>
      <trkpt lat="43.94327" lon="6.24037">
        <ele>758.59997558594</ele>
        <time>2019-10-29T10:13:02Z</time>
      </trkpt>
      <trkpt lat="43.94319" lon="6.24061">
        <ele>761.20001220703</ele>
        <time>2019-10-29T10:13:30Z</time>
      </trkpt>
      <trkpt lat="43.94305" lon="6.24076">
        <ele>763</ele>
        <time>2019-10-29T10:13:51Z</time>
      </trkpt>
      <trkpt lat="43.9429" lon="6.24084">
        <ele>765.20001220703</ele>
        <time>2019-10-29T10:14:10Z</time>
      </trkpt>
      <trkpt lat="43.94274" lon="6.24093">
        <ele>766.59997558594</ele>
        <time>2019-10-29T10:14:32Z</time>
      </trkpt>
      <trkpt lat="43.94258" lon="6.24095">
        <ele>768.40002441406</ele>
        <time>2019-10-29T10:14:53Z</time>
      </trkpt>
      <trkpt lat="43.94238" lon="6.24097">
        <ele>770.40002441406</ele>
        <time>2019-10-29T10:15:19Z</time>
      </trkpt>
      <trkpt lat="43.94216" lon="6.24104">
        <ele>772.79998779297</ele>
        <time>2019-10-29T10:15:46Z</time>
      </trkpt>
      <trkpt lat="43.942" lon="6.24104">
        <ele>774.40002441406</ele>
        <time>2019-10-29T10:16:06Z</time>
      </trkpt>
      <trkpt lat="43.94178" lon="6.24105">
        <ele>776.40002441406</ele>
        <time>2019-10-29T10:16:34Z</time>
      </trkpt>
      <trkpt lat="43.94162" lon="6.24101">
        <ele>778.20001220703</ele>
        <time>2019-10-29T10:16:58Z</time>
      </trkpt>
      <trkpt lat="43.94163" lon="6.24107">
        <ele>780.20001220703</ele>
        <time>2019-10-29T10:17:22Z</time>
      </trkpt>
      <trkpt lat="43.94174" lon="6.24113">
        <ele>781.79998779297</ele>
        <time>2019-10-29T10:17:44Z</time>
      </trkpt>
      <trkpt lat="43.94187" lon="6.24123">
        <ele>784</ele>
        <time>2019-10-29T10:18:05Z</time>
      </trkpt>
      <trkpt lat="43.94203" lon="6.24129">
        <ele>786.20001220703</ele>
        <time>2019-10-29T10:18:27Z</time>
      </trkpt>
      <trkpt lat="43.94215" lon="6.24134">
        <ele>788</ele>
        <time>2019-10-29T10:18:45Z</time>
      </trkpt>
      <trkpt lat="43.94229" lon="6.24142">
        <ele>790.79998779297</ele>
        <time>2019-10-29T10:19:10Z</time>
      </trkpt>
      <trkpt lat="43.94246" lon="6.24146">
        <ele>793.79998779297</ele>
        <time>2019-10-29T10:19:35Z</time>
      </trkpt>
      <trkpt lat="43.9426" lon="6.24152">
        <ele>796.40002441406</ele>
        <time>2019-10-29T10:20:03Z</time>
      </trkpt>
      <trkpt lat="43.94273" lon="6.24155">
        <ele>799</ele>
        <time>2019-10-29T10:20:25Z</time>
      </trkpt>
      <trkpt lat="43.94276" lon="6.24154">
        <ele>799.40002441406</ele>
        <time>2019-10-29T10:20:29Z</time>
      </trkpt>
      <trkpt lat="43.94291" lon="6.24157">
        <ele>801.59997558594</ele>
        <time>2019-10-29T10:20:50Z</time>
      </trkpt>
      <trkpt lat="43.94303" lon="6.24156">
        <ele>803.79998779297</ele>
        <time>2019-10-29T10:21:10Z</time>
      </trkpt>
      <trkpt lat="43.94318" lon="6.24164">
        <ele>806.79998779297</ele>
        <time>2019-10-29T10:21:37Z</time>
      </trkpt>
      <trkpt lat="43.94336" lon="6.24167">
        <ele>809.79998779297</ele>
        <time>2019-10-29T10:22:02Z</time>
      </trkpt>
      <trkpt lat="43.94351" lon="6.24169">
        <ele>812.79998779297</ele>
        <time>2019-10-29T10:22:27Z</time>
      </trkpt>
      <trkpt lat="43.94368" lon="6.24172">
        <ele>815.40002441406</ele>
        <time>2019-10-29T10:22:52Z</time>
      </trkpt>
      <trkpt lat="43.94388" lon="6.2417">
        <ele>818.20001220703</ele>
        <time>2019-10-29T10:23:18Z</time>
      </trkpt>
      <trkpt lat="43.94405" lon="6.24163">
        <ele>820.79998779297</ele>
        <time>2019-10-29T10:23:44Z</time>
      </trkpt>
      <trkpt lat="43.94418" lon="6.24161">
        <ele>823.20001220703</ele>
        <time>2019-10-29T10:24:10Z</time>
      </trkpt>
      <trkpt lat="43.94434" lon="6.24151">
        <ele>826.40002441406</ele>
        <time>2019-10-29T10:24:33Z</time>
      </trkpt>
      <trkpt lat="43.94448" lon="6.24138">
        <ele>829</ele>
        <time>2019-10-29T10:24:56Z</time>
      </trkpt>
      <trkpt lat="43.94458" lon="6.24131">
        <ele>831.20001220703</ele>
        <time>2019-10-29T10:25:15Z</time>
      </trkpt>
      <trkpt lat="43.94472" lon="6.24121">
        <ele>833.40002441406</ele>
        <time>2019-10-29T10:25:38Z</time>
      </trkpt>
      <trkpt lat="43.94478" lon="6.24116">
        <ele>835</ele>
        <time>2019-10-29T10:26:02Z</time>
      </trkpt>
      <trkpt lat="43.94501" lon="6.24109">
        <ele>836.79998779297</ele>
        <time>2019-10-29T10:26:27Z</time>
      </trkpt>
      <trkpt lat="43.9452" lon="6.24094">
        <ele>837.59997558594</ele>
        <time>2019-10-29T10:26:55Z</time>
      </trkpt>
      <trkpt lat="43.9453" lon="6.24094">
        <ele>838.40002441406</ele>
        <time>2019-10-29T10:27:26Z</time>
      </trkpt>
      <trkpt lat="43.94521" lon="6.24108">
        <ele>838.20001220703</ele>
        <time>2019-10-29T10:28:17Z</time>
      </trkpt>
      <trkpt lat="43.94522" lon="6.24119">
        <ele>838.20001220703</ele>
        <time>2019-10-29T10:29:20Z</time>
      </trkpt>
      <trkpt lat="43.94522" lon="6.24116">
        <ele>838.20001220703</ele>
        <time>2019-10-29T10:29:34Z</time>
      </trkpt>
      <trkpt lat="43.94522" lon="6.24111">
        <ele>838.20001220703</ele>
        <time>2019-10-29T10:29:38Z</time>
      </trkpt>
      <trkpt lat="43.94535" lon="6.24086">
        <ele>838.79998779297</ele>
        <time>2019-10-29T10:30:02Z</time>
      </trkpt>
      <trkpt lat="43.94545" lon="6.24077">
        <ele>841.40002441406</ele>
        <time>2019-10-29T10:30:29Z</time>
      </trkpt>
      <trkpt lat="43.94539" lon="6.2407">
        <ele>844.59997558594</ele>
        <time>2019-10-29T10:30:48Z</time>
      </trkpt>
      <trkpt lat="43.94531" lon="6.24055">
        <ele>846.59997558594</ele>
        <time>2019-10-29T10:31:07Z</time>
      </trkpt>
      <trkpt lat="43.9453" lon="6.24045">
        <ele>848.79998779297</ele>
        <time>2019-10-29T10:31:25Z</time>
      </trkpt>
      <trkpt lat="43.94526" lon="6.24034">
        <ele>851.79998779297</ele>
        <time>2019-10-29T10:31:43Z</time>
      </trkpt>
      <trkpt lat="43.94525" lon="6.24027">
        <ele>854.59997558594</ele>
        <time>2019-10-29T10:32:02Z</time>
      </trkpt>
      <trkpt lat="43.94524" lon="6.2402">
        <ele>856.79998779297</ele>
        <time>2019-10-29T10:32:22Z</time>
      </trkpt>
      <trkpt lat="43.94527" lon="6.24014">
        <ele>860</ele>
        <time>2019-10-29T10:32:42Z</time>
      </trkpt>
      <trkpt lat="43.94525" lon="6.24007">
        <ele>861.79998779297</ele>
        <time>2019-10-29T10:32:59Z</time>
      </trkpt>
      <trkpt lat="43.94521" lon="6.24003">
        <ele>864.20001220703</ele>
        <time>2019-10-29T10:33:18Z</time>
      </trkpt>
      <trkpt lat="43.94518" lon="6.23999">
        <ele>865.59997558594</ele>
        <time>2019-10-29T10:33:35Z</time>
      </trkpt>
      <trkpt lat="43.94522" lon="6.23995">
        <ele>866.79998779297</ele>
        <time>2019-10-29T10:34:12Z</time>
      </trkpt>
      <trkpt lat="43.94519" lon="6.23986">
        <ele>867.59997558594</ele>
        <time>2019-10-29T10:34:31Z</time>
      </trkpt>
      <trkpt lat="43.94517" lon="6.23979">
        <ele>870</ele>
        <time>2019-10-29T10:34:48Z</time>
      </trkpt>
      <trkpt lat="43.9451" lon="6.23973">
        <ele>872</ele>
        <time>2019-10-29T10:35:02Z</time>
      </trkpt>
      <trkpt lat="43.94505" lon="6.23963">
        <ele>874.20001220703</ele>
        <time>2019-10-29T10:35:20Z</time>
      </trkpt>
      <trkpt lat="43.94504" lon="6.23954">
        <ele>876.20001220703</ele>
        <time>2019-10-29T10:35:36Z</time>
      </trkpt>
      <trkpt lat="43.94506" lon="6.23946">
        <ele>876.79998779297</ele>
        <time>2019-10-29T10:35:54Z</time>
      </trkpt>
      <trkpt lat="43.94507" lon="6.23946">
        <ele>877</ele>
        <time>2019-10-29T10:36:13Z</time>
      </trkpt>
      <trkpt lat="43.94513" lon="6.23941">
        <ele>878.20001220703</ele>
        <time>2019-10-29T10:36:29Z</time>
      </trkpt>
      <trkpt lat="43.94512" lon="6.23943">
        <ele>879.59997558594</ele>
        <time>2019-10-29T10:37:14Z</time>
      </trkpt>
      <trkpt lat="43.94522" lon="6.23946">
        <ele>880</ele>
        <time>2019-10-29T10:37:31Z</time>
      </trkpt>
      <trkpt lat="43.9453" lon="6.23945">
        <ele>880.59997558594</ele>
        <time>2019-10-29T10:37:46Z</time>
      </trkpt>
      <trkpt lat="43.94524" lon="6.23947">
        <ele>881</ele>
        <time>2019-10-29T10:38:01Z</time>
      </trkpt>
      <trkpt lat="43.94525" lon="6.23942">
        <ele>880</ele>
        <time>2019-10-29T10:39:12Z</time>
      </trkpt>
      <trkpt lat="43.94523" lon="6.23943">
        <ele>879.59997558594</ele>
        <time>2019-10-29T10:40:27Z</time>
      </trkpt>
      <trkpt lat="43.94525" lon="6.23944">
        <ele>880</ele>
        <time>2019-10-29T10:47:58Z</time>
      </trkpt>
      <trkpt lat="43.94526" lon="6.23946">
        <ele>879.79998779297</ele>
        <time>2019-10-29T10:57:56Z</time>
      </trkpt>
      <trkpt lat="43.94524" lon="6.23947">
        <ele>879.59997558594</ele>
        <time>2019-10-29T11:16:51Z</time>
      </trkpt>
      <trkpt lat="43.94527" lon="6.23947">
        <ele>881.40002441406</ele>
        <time>2019-10-29T11:36:43Z</time>
      </trkpt>
      <trkpt lat="43.94525" lon="6.2395">
        <ele>882.40002441406</ele>
        <time>2019-10-29T11:40:31Z</time>
      </trkpt>
      <trkpt lat="43.94525" lon="6.23949">
        <ele>882.40002441406</ele>
        <time>2019-10-29T11:41:02Z</time>
      </trkpt>
      <trkpt lat="43.94517" lon="6.23947">
        <ele>882.20001220703</ele>
        <time>2019-10-29T11:41:27Z</time>
      </trkpt>
      <trkpt lat="43.94508" lon="6.23945">
        <ele>881.20001220703</ele>
        <time>2019-10-29T11:41:49Z</time>
      </trkpt>
      <trkpt lat="43.94502" lon="6.23948">
        <ele>879.79998779297</ele>
        <time>2019-10-29T11:42:08Z</time>
      </trkpt>
      <trkpt lat="43.94503" lon="6.2396">
        <ele>878.79998779297</ele>
        <time>2019-10-29T11:42:31Z</time>
      </trkpt>
      <trkpt lat="43.94506" lon="6.23967">
        <ele>877.40002441406</ele>
        <time>2019-10-29T11:42:50Z</time>
      </trkpt>
      <trkpt lat="43.9451" lon="6.23977">
        <ele>875.79998779297</ele>
        <time>2019-10-29T11:43:14Z</time>
      </trkpt>
      <trkpt lat="43.94516" lon="6.23987">
        <ele>873.79998779297</ele>
        <time>2019-10-29T11:43:36Z</time>
      </trkpt>
      <trkpt lat="43.94516" lon="6.23995">
        <ele>871.79998779297</ele>
        <time>2019-10-29T11:43:55Z</time>
      </trkpt>
      <trkpt lat="43.94516" lon="6.24004">
        <ele>869.59997558594</ele>
        <time>2019-10-29T11:44:12Z</time>
      </trkpt>
      <trkpt lat="43.94523" lon="6.24014">
        <ele>866.59997558594</ele>
        <time>2019-10-29T11:44:36Z</time>
      </trkpt>
      <trkpt lat="43.94525" lon="6.24024">
        <ele>864.40002441406</ele>
        <time>2019-10-29T11:45:00Z</time>
      </trkpt>
      <trkpt lat="43.94523" lon="6.24023">
        <ele>863</ele>
        <time>2019-10-29T11:45:16Z</time>
      </trkpt>
      <trkpt lat="43.94525" lon="6.24027">
        <ele>861.79998779297</ele>
        <time>2019-10-29T11:45:33Z</time>
      </trkpt>
      <trkpt lat="43.94525" lon="6.2403">
        <ele>860</ele>
        <time>2019-10-29T11:45:55Z</time>
      </trkpt>
      <trkpt lat="43.94527" lon="6.24036">
        <ele>858.20001220703</ele>
        <time>2019-10-29T11:46:13Z</time>
      </trkpt>
      <trkpt lat="43.94531" lon="6.24046">
        <ele>855.59997558594</ele>
        <time>2019-10-29T11:46:37Z</time>
      </trkpt>
      <trkpt lat="43.94533" lon="6.24055">
        <ele>853.79998779297</ele>
        <time>2019-10-29T11:46:54Z</time>
      </trkpt>
      <trkpt lat="43.94535" lon="6.24061">
        <ele>851.20001220703</ele>
        <time>2019-10-29T11:47:12Z</time>
      </trkpt>
      <trkpt lat="43.94539" lon="6.24066">
        <ele>850.20001220703</ele>
        <time>2019-10-29T11:47:35Z</time>
      </trkpt>
      <trkpt lat="43.94539" lon="6.24066">
        <ele>850.20001220703</ele>
        <time>2019-10-29T11:47:36Z</time>
      </trkpt>
      <trkpt lat="43.94539" lon="6.24065">
        <ele>851.59997558594</ele>
        <time>2019-10-29T11:47:38Z</time>
      </trkpt>
      <trkpt lat="43.94543" lon="6.24073">
        <ele>851</ele>
        <time>2019-10-29T11:48:02Z</time>
      </trkpt>
      <trkpt lat="43.94543" lon="6.24088">
        <ele>848.40002441406</ele>
        <time>2019-10-29T11:48:28Z</time>
      </trkpt>
      <trkpt lat="43.94527" lon="6.24098">
        <ele>845.20001220703</ele>
        <time>2019-10-29T11:48:53Z</time>
      </trkpt>
      <trkpt lat="43.94525" lon="6.24105">
        <ele>843.59997558594</ele>
        <time>2019-10-29T11:49:22Z</time>
      </trkpt>
      <trkpt lat="43.94523" lon="6.24101">
        <ele>843.79998779297</ele>
        <time>2019-10-29T11:49:46Z</time>
      </trkpt>
      <trkpt lat="43.94517" lon="6.24106">
        <ele>843.59997558594</ele>
        <time>2019-10-29T11:50:08Z</time>
      </trkpt>
      <trkpt lat="43.94502" lon="6.24118">
        <ele>843.20001220703</ele>
        <time>2019-10-29T11:50:26Z</time>
      </trkpt>
      <trkpt lat="43.94484" lon="6.24125">
        <ele>842.20001220703</ele>
        <time>2019-10-29T11:50:45Z</time>
      </trkpt>
      <trkpt lat="43.94467" lon="6.24136">
        <ele>840.20001220703</ele>
        <time>2019-10-29T11:51:04Z</time>
      </trkpt>
      <trkpt lat="43.94452" lon="6.24144">
        <ele>837.59997558594</ele>
        <time>2019-10-29T11:51:22Z</time>
      </trkpt>
      <trkpt lat="43.94442" lon="6.24154">
        <ele>834.59997558594</ele>
        <time>2019-10-29T11:51:43Z</time>
      </trkpt>
      <trkpt lat="43.94441" lon="6.24154">
        <ele>834.20001220703</ele>
        <time>2019-10-29T11:51:45Z</time>
      </trkpt>
      <trkpt lat="43.94428" lon="6.24155">
        <ele>831.20001220703</ele>
        <time>2019-10-29T11:52:10Z</time>
      </trkpt>
      <trkpt lat="43.94398" lon="6.24156">
        <ele>828</ele>
        <time>2019-10-29T11:52:30Z</time>
      </trkpt>
      <trkpt lat="43.94376" lon="6.24157">
        <ele>825.20001220703</ele>
        <time>2019-10-29T11:52:54Z</time>
      </trkpt>
      <trkpt lat="43.94359" lon="6.24158">
        <ele>822.20001220703</ele>
        <time>2019-10-29T11:53:12Z</time>
      </trkpt>
      <trkpt lat="43.94341" lon="6.24156">
        <ele>819.20001220703</ele>
        <time>2019-10-29T11:53:33Z</time>
      </trkpt>
      <trkpt lat="43.94325" lon="6.24157">
        <ele>816.20001220703</ele>
        <time>2019-10-29T11:53:54Z</time>
      </trkpt>
      <trkpt lat="43.94304" lon="6.24145">
        <ele>813</ele>
        <time>2019-10-29T11:54:14Z</time>
      </trkpt>
      <trkpt lat="43.94284" lon="6.24141">
        <ele>810.20001220703</ele>
        <time>2019-10-29T11:54:37Z</time>
      </trkpt>
      <trkpt lat="43.94262" lon="6.24139">
        <ele>807</ele>
        <time>2019-10-29T11:55:00Z</time>
      </trkpt>
      <trkpt lat="43.94245" lon="6.24128">
        <ele>804.40002441406</ele>
        <time>2019-10-29T11:55:21Z</time>
      </trkpt>
      <trkpt lat="43.94228" lon="6.24119">
        <ele>801.40002441406</ele>
        <time>2019-10-29T11:55:42Z</time>
      </trkpt>
      <trkpt lat="43.94211" lon="6.24113">
        <ele>799</ele>
        <time>2019-10-29T11:56:04Z</time>
      </trkpt>
      <trkpt lat="43.94191" lon="6.24107">
        <ele>796</ele>
        <time>2019-10-29T11:56:30Z</time>
      </trkpt>
      <trkpt lat="43.94176" lon="6.24097">
        <ele>793.20001220703</ele>
        <time>2019-10-29T11:56:53Z</time>
      </trkpt>
      <trkpt lat="43.94156" lon="6.24095">
        <ele>791.40002441406</ele>
        <time>2019-10-29T11:57:12Z</time>
      </trkpt>
      <trkpt lat="43.94153" lon="6.24101">
        <ele>790.59997558594</ele>
        <time>2019-10-29T11:57:29Z</time>
      </trkpt>
      <trkpt lat="43.94145" lon="6.241">
        <ele>791.20001220703</ele>
        <time>2019-10-29T11:57:50Z</time>
      </trkpt>
      <trkpt lat="43.94125" lon="6.24119">
        <ele>794</ele>
        <time>2019-10-29T11:58:20Z</time>
      </trkpt>
      <trkpt lat="43.94111" lon="6.24138">
        <ele>797</ele>
        <time>2019-10-29T11:58:53Z</time>
      </trkpt>
      <trkpt lat="43.94098" lon="6.24153">
        <ele>798.79998779297</ele>
        <time>2019-10-29T11:59:14Z</time>
      </trkpt>
      <trkpt lat="43.94089" lon="6.24169">
        <ele>801</ele>
        <time>2019-10-29T11:59:36Z</time>
      </trkpt>
      <trkpt lat="43.94079" lon="6.24182">
        <ele>802.79998779297</ele>
        <time>2019-10-29T11:59:59Z</time>
      </trkpt>
      <trkpt lat="43.94067" lon="6.24196">
        <ele>804.79998779297</ele>
        <time>2019-10-29T12:00:19Z</time>
      </trkpt>
      <trkpt lat="43.94048" lon="6.24188">
        <ele>806.79998779297</ele>
        <time>2019-10-29T12:00:46Z</time>
      </trkpt>
      <trkpt lat="43.94034" lon="6.24193">
        <ele>808.79998779297</ele>
        <time>2019-10-29T12:01:08Z</time>
      </trkpt>
      <trkpt lat="43.94033" lon="6.24212">
        <ele>808.59997558594</ele>
        <time>2019-10-29T12:01:26Z</time>
      </trkpt>
      <trkpt lat="43.94024" lon="6.24239">
        <ele>808.20001220703</ele>
        <time>2019-10-29T12:01:48Z</time>
      </trkpt>
      <trkpt lat="43.94013" lon="6.24256">
        <ele>806.79998779297</ele>
        <time>2019-10-29T12:02:10Z</time>
      </trkpt>
      <trkpt lat="43.93992" lon="6.24278">
        <ele>805.59997558594</ele>
        <time>2019-10-29T12:02:38Z</time>
      </trkpt>
      <trkpt lat="43.93976" lon="6.2428">
        <ele>805</ele>
        <time>2019-10-29T12:03:01Z</time>
      </trkpt>
      <trkpt lat="43.93958" lon="6.24279">
        <ele>803.79998779297</ele>
        <time>2019-10-29T12:03:20Z</time>
      </trkpt>
      <trkpt lat="43.93934" lon="6.24279">
        <ele>803.20001220703</ele>
        <time>2019-10-29T12:03:52Z</time>
      </trkpt>
      <trkpt lat="43.93926" lon="6.24303">
        <ele>802.79998779297</ele>
        <time>2019-10-29T12:04:15Z</time>
      </trkpt>
      <trkpt lat="43.93904" lon="6.24311">
        <ele>802</ele>
        <time>2019-10-29T12:04:38Z</time>
      </trkpt>
      <trkpt lat="43.93886" lon="6.24327">
        <ele>801</ele>
        <time>2019-10-29T12:05:02Z</time>
      </trkpt>
      <trkpt lat="43.93875" lon="6.24345">
        <ele>800.59997558594</ele>
        <time>2019-10-29T12:05:26Z</time>
      </trkpt>
      <trkpt lat="43.93858" lon="6.24363">
        <ele>799.20001220703</ele>
        <time>2019-10-29T12:05:49Z</time>
      </trkpt>
      <trkpt lat="43.93844" lon="6.24387">
        <ele>798.20001220703</ele>
        <time>2019-10-29T12:06:16Z</time>
      </trkpt>
      <trkpt lat="43.93833" lon="6.2439">
        <ele>797.79998779297</ele>
        <time>2019-10-29T12:06:39Z</time>
      </trkpt>
      <trkpt lat="43.93824" lon="6.24405">
        <ele>797</ele>
        <time>2019-10-29T12:07:06Z</time>
      </trkpt>
      <trkpt lat="43.93803" lon="6.24421">
        <ele>795.40002441406</ele>
        <time>2019-10-29T12:07:33Z</time>
      </trkpt>
      <trkpt lat="43.93802" lon="6.24423">
        <ele>795.40002441406</ele>
        <time>2019-10-29T12:07:37Z</time>
      </trkpt>
      <trkpt lat="43.93782" lon="6.24428">
        <ele>794</ele>
        <time>2019-10-29T12:08:01Z</time>
      </trkpt>
      <trkpt lat="43.93767" lon="6.2443">
        <ele>793.40002441406</ele>
        <time>2019-10-29T12:08:17Z</time>
      </trkpt>
      <trkpt lat="43.93747" lon="6.24453">
        <ele>792.20001220703</ele>
        <time>2019-10-29T12:08:44Z</time>
      </trkpt>
      <trkpt lat="43.93732" lon="6.24443">
        <ele>791.20001220703</ele>
        <time>2019-10-29T12:09:13Z</time>
      </trkpt>
      <trkpt lat="43.93729" lon="6.24443">
        <ele>791</ele>
        <time>2019-10-29T12:09:27Z</time>
      </trkpt>
      <trkpt lat="43.93725" lon="6.24441">
        <ele>791</ele>
        <time>2019-10-29T12:09:30Z</time>
      </trkpt>
      <trkpt lat="43.93721" lon="6.24439">
        <ele>791</ele>
        <time>2019-10-29T12:09:32Z</time>
      </trkpt>
      <trkpt lat="43.93717" lon="6.24439">
        <ele>791</ele>
        <time>2019-10-29T12:10:14Z</time>
      </trkpt>
      <trkpt lat="43.93713" lon="6.24442">
        <ele>790.79998779297</ele>
        <time>2019-10-29T12:10:49Z</time>
      </trkpt>
      <trkpt lat="43.93712" lon="6.24441">
        <ele>790.59997558594</ele>
        <time>2019-10-29T12:10:51Z</time>
      </trkpt>
      <trkpt lat="43.93703" lon="6.24446">
        <ele>790.20001220703</ele>
        <time>2019-10-29T12:11:20Z</time>
      </trkpt>
      <trkpt lat="43.93691" lon="6.24456">
        <ele>789.40002441406</ele>
        <time>2019-10-29T12:11:43Z</time>
      </trkpt>
      <trkpt lat="43.93685" lon="6.24468">
        <ele>789</ele>
        <time>2019-10-29T12:12:01Z</time>
      </trkpt>
      <trkpt lat="43.93677" lon="6.24482">
        <ele>788.20001220703</ele>
        <time>2019-10-29T12:12:22Z</time>
      </trkpt>
      <trkpt lat="43.93667" lon="6.24508">
        <ele>787</ele>
        <time>2019-10-29T12:12:48Z</time>
      </trkpt>
      <trkpt lat="43.93652" lon="6.24525">
        <ele>785.59997558594</ele>
        <time>2019-10-29T12:13:12Z</time>
      </trkpt>
      <trkpt lat="43.9365" lon="6.24526">
        <ele>785.59997558594</ele>
        <time>2019-10-29T12:13:14Z</time>
      </trkpt>
      <trkpt lat="43.93633" lon="6.24543">
        <ele>784.40002441406</ele>
        <time>2019-10-29T12:13:34Z</time>
      </trkpt>
      <trkpt lat="43.93629" lon="6.24547">
        <ele>784.40002441406</ele>
        <time>2019-10-29T12:13:39Z</time>
      </trkpt>
      <trkpt lat="43.93628" lon="6.24548">
        <ele>784.20001220703</ele>
        <time>2019-10-29T12:13:41Z</time>
      </trkpt>
      <trkpt lat="43.93614" lon="6.24565">
        <ele>783.59997558594</ele>
        <time>2019-10-29T12:14:07Z</time>
      </trkpt>
      <trkpt lat="43.93604" lon="6.24567">
        <ele>783</ele>
        <time>2019-10-29T12:14:18Z</time>
      </trkpt>
      <trkpt lat="43.93589" lon="6.24572">
        <ele>783</ele>
        <time>2019-10-29T12:14:41Z</time>
      </trkpt>
      <trkpt lat="43.9357" lon="6.24574">
        <ele>782.59997558594</ele>
        <time>2019-10-29T12:15:03Z</time>
      </trkpt>
      <trkpt lat="43.93546" lon="6.24571">
        <ele>779.59997558594</ele>
        <time>2019-10-29T12:15:28Z</time>
      </trkpt>
      <trkpt lat="43.93541" lon="6.24573">
        <ele>779.20001220703</ele>
        <time>2019-10-29T12:15:31Z</time>
      </trkpt>
      <trkpt lat="43.93532" lon="6.24579">
        <ele>777.79998779297</ele>
        <time>2019-10-29T12:15:53Z</time>
      </trkpt>
      <trkpt lat="43.93525" lon="6.24582">
        <ele>777</ele>
        <time>2019-10-29T12:16:03Z</time>
      </trkpt>
      <trkpt lat="43.93506" lon="6.24569">
        <ele>774</ele>
        <time>2019-10-29T12:16:25Z</time>
      </trkpt>
      <trkpt lat="43.93501" lon="6.24564">
        <ele>773</ele>
        <time>2019-10-29T12:16:30Z</time>
      </trkpt>
      <trkpt lat="43.93486" lon="6.24545">
        <ele>770.59997558594</ele>
        <time>2019-10-29T12:16:52Z</time>
      </trkpt>
      <trkpt lat="43.93468" lon="6.24536">
        <ele>767.59997558594</ele>
        <time>2019-10-29T12:17:17Z</time>
      </trkpt>
      <trkpt lat="43.9346" lon="6.24541">
        <ele>765.40002441406</ele>
        <time>2019-10-29T12:17:35Z</time>
      </trkpt>
      <trkpt lat="43.93452" lon="6.2455">
        <ele>762.59997558594</ele>
        <time>2019-10-29T12:17:52Z</time>
      </trkpt>
      <trkpt lat="43.93433" lon="6.24556">
        <ele>759.40002441406</ele>
        <time>2019-10-29T12:18:14Z</time>
      </trkpt>
      <trkpt lat="43.93413" lon="6.24567">
        <ele>756.20001220703</ele>
        <time>2019-10-29T12:18:42Z</time>
      </trkpt>
      <trkpt lat="43.93395" lon="6.24573">
        <ele>754</ele>
        <time>2019-10-29T12:19:06Z</time>
      </trkpt>
      <trkpt lat="43.93389" lon="6.24579">
        <ele>753.20001220703</ele>
        <time>2019-10-29T12:19:17Z</time>
      </trkpt>
      <trkpt lat="43.93387" lon="6.24586">
        <ele>753</ele>
        <time>2019-10-29T12:19:23Z</time>
      </trkpt>
      <trkpt lat="43.93385" lon="6.24587">
        <ele>753</ele>
        <time>2019-10-29T12:19:27Z</time>
      </trkpt>
      <trkpt lat="43.93382" lon="6.24598">
        <ele>752.79998779297</ele>
        <time>2019-10-29T12:19:44Z</time>
      </trkpt>
      <trkpt lat="43.93379" lon="6.24603">
        <ele>752</ele>
        <time>2019-10-29T12:19:54Z</time>
      </trkpt>
      <trkpt lat="43.93367" lon="6.24607">
        <ele>750.20001220703</ele>
        <time>2019-10-29T12:20:21Z</time>
      </trkpt>
      <trkpt lat="43.93365" lon="6.24613">
        <ele>750.20001220703</ele>
        <time>2019-10-29T12:20:28Z</time>
      </trkpt>
      <trkpt lat="43.93361" lon="6.24615">
        <ele>750.20001220703</ele>
        <time>2019-10-29T12:20:31Z</time>
      </trkpt>
      <trkpt lat="43.93357" lon="6.24602">
        <ele>751.40002441406</ele>
        <time>2019-10-29T12:20:53Z</time>
      </trkpt>
      <trkpt lat="43.93358" lon="6.246">
        <ele>751.59997558594</ele>
        <time>2019-10-29T12:21:05Z</time>
      </trkpt>
      <trkpt lat="43.93358" lon="6.24598">
        <ele>752</ele>
        <time>2019-10-29T12:21:08Z</time>
      </trkpt>
      <trkpt lat="43.93363" lon="6.24581">
        <ele>751.40002441406</ele>
        <time>2019-10-29T12:21:34Z</time>
      </trkpt>
      <trkpt lat="43.93366" lon="6.24561">
        <ele>751.20001220703</ele>
        <time>2019-10-29T12:21:54Z</time>
      </trkpt>
      <trkpt lat="43.9337" lon="6.24554">
        <ele>752</ele>
        <time>2019-10-29T12:22:16Z</time>
      </trkpt>
      <trkpt lat="43.93375" lon="6.24541">
        <ele>752.40002441406</ele>
        <time>2019-10-29T12:22:45Z</time>
      </trkpt>
      <trkpt lat="43.93364" lon="6.24512">
        <ele>755</ele>
        <time>2019-10-29T12:23:18Z</time>
      </trkpt>
      <trkpt lat="43.93368" lon="6.2451">
        <ele>756.20001220703</ele>
        <time>2019-10-29T12:23:45Z</time>
      </trkpt>
      <trkpt lat="43.93382" lon="6.24498">
        <ele>756.79998779297</ele>
        <time>2019-10-29T12:24:08Z</time>
      </trkpt>
      <trkpt lat="43.93385" lon="6.24484">
        <ele>758.40002441406</ele>
        <time>2019-10-29T12:24:30Z</time>
      </trkpt>
      <trkpt lat="43.93391" lon="6.24463">
        <ele>760.59997558594</ele>
        <time>2019-10-29T12:24:50Z</time>
      </trkpt>
      <trkpt lat="43.93398" lon="6.24451">
        <ele>763</ele>
        <time>2019-10-29T12:25:12Z</time>
      </trkpt>
      <trkpt lat="43.93397" lon="6.24456">
        <ele>763.59997558594</ele>
        <time>2019-10-29T12:25:17Z</time>
      </trkpt>
      <trkpt lat="43.93416" lon="6.24444">
        <ele>765.20001220703</ele>
        <time>2019-10-29T12:25:44Z</time>
      </trkpt>
      <trkpt lat="43.93423" lon="6.24442">
        <ele>765.59997558594</ele>
        <time>2019-10-29T12:25:59Z</time>
      </trkpt>
      <trkpt lat="43.93436" lon="6.24418">
        <ele>768.40002441406</ele>
        <time>2019-10-29T12:26:27Z</time>
      </trkpt>
      <trkpt lat="43.93457" lon="6.24404">
        <ele>771</ele>
        <time>2019-10-29T12:26:52Z</time>
      </trkpt>
      <trkpt lat="43.9347" lon="6.24396">
        <ele>772.79998779297</ele>
        <time>2019-10-29T12:27:15Z</time>
      </trkpt>
      <trkpt lat="43.93478" lon="6.24389">
        <ele>775.20001220703</ele>
        <time>2019-10-29T12:27:39Z</time>
      </trkpt>
      <trkpt lat="43.93487" lon="6.24376">
        <ele>777</ele>
        <time>2019-10-29T12:28:04Z</time>
      </trkpt>
      <trkpt lat="43.93484" lon="6.24351">
        <ele>779.79998779297</ele>
        <time>2019-10-29T12:28:29Z</time>
      </trkpt>
      <trkpt lat="43.93473" lon="6.24331">
        <ele>781.79998779297</ele>
        <time>2019-10-29T12:28:53Z</time>
      </trkpt>
      <trkpt lat="43.93458" lon="6.24327">
        <ele>784.59997558594</ele>
        <time>2019-10-29T12:29:25Z</time>
      </trkpt>
      <trkpt lat="43.93446" lon="6.24321">
        <ele>786.20001220703</ele>
        <time>2019-10-29T12:29:53Z</time>
      </trkpt>
      <trkpt lat="43.93428" lon="6.24337">
        <ele>788.59997558594</ele>
        <time>2019-10-29T12:30:18Z</time>
      </trkpt>
      <trkpt lat="43.93425" lon="6.24336">
        <ele>789.20001220703</ele>
        <time>2019-10-29T12:30:23Z</time>
      </trkpt>
      <trkpt lat="43.93413" lon="6.2434">
        <ele>791.40002441406</ele>
        <time>2019-10-29T12:30:38Z</time>
      </trkpt>
      <trkpt lat="43.93405" lon="6.24347">
        <ele>792.40002441406</ele>
        <time>2019-10-29T12:30:52Z</time>
      </trkpt>
      <trkpt lat="43.93386" lon="6.24352">
        <ele>794.59997558594</ele>
        <time>2019-10-29T12:31:18Z</time>
      </trkpt>
      <trkpt lat="43.93369" lon="6.24355">
        <ele>796.59997558594</ele>
        <time>2019-10-29T12:31:43Z</time>
      </trkpt>
      <trkpt lat="43.93346" lon="6.24342">
        <ele>799.40002441406</ele>
        <time>2019-10-29T12:32:12Z</time>
      </trkpt>
      <trkpt lat="43.93339" lon="6.24343">
        <ele>800.20001220703</ele>
        <time>2019-10-29T12:32:22Z</time>
      </trkpt>
      <trkpt lat="43.9332" lon="6.24342">
        <ele>802.20001220703</ele>
        <time>2019-10-29T12:32:45Z</time>
      </trkpt>
      <trkpt lat="43.93313" lon="6.2434">
        <ele>802.59997558594</ele>
        <time>2019-10-29T12:32:53Z</time>
      </trkpt>
      <trkpt lat="43.93302" lon="6.24331">
        <ele>803.40002441406</ele>
        <time>2019-10-29T12:33:19Z</time>
      </trkpt>
      <trkpt lat="43.9328" lon="6.24317">
        <ele>805.79998779297</ele>
        <time>2019-10-29T12:33:46Z</time>
      </trkpt>
      <trkpt lat="43.93271" lon="6.24313">
        <ele>807</ele>
        <time>2019-10-29T12:33:59Z</time>
      </trkpt>
      <trkpt lat="43.93255" lon="6.24293">
        <ele>809</ele>
        <time>2019-10-29T12:34:23Z</time>
      </trkpt>
      <trkpt lat="43.93243" lon="6.24271">
        <ele>811.20001220703</ele>
        <time>2019-10-29T12:34:54Z</time>
      </trkpt>
      <trkpt lat="43.93243" lon="6.24279">
        <ele>811.79998779297</ele>
        <time>2019-10-29T12:35:10Z</time>
      </trkpt>
      <trkpt lat="43.93245" lon="6.24282">
        <ele>811.79998779297</ele>
        <time>2019-10-29T12:35:13Z</time>
      </trkpt>
      <trkpt lat="43.93247" lon="6.24298">
        <ele>812.59997558594</ele>
        <time>2019-10-29T12:35:47Z</time>
      </trkpt>
      <trkpt lat="43.93246" lon="6.24297">
        <ele>813</ele>
        <time>2019-10-29T12:35:49Z</time>
      </trkpt>
      <trkpt lat="43.93243" lon="6.24294">
        <ele>813.40002441406</ele>
        <time>2019-10-29T12:35:54Z</time>
      </trkpt>
      <trkpt lat="43.93245" lon="6.24292">
        <ele>813.40002441406</ele>
        <time>2019-10-29T12:35:58Z</time>
      </trkpt>
      <trkpt lat="43.93257" lon="6.24292">
        <ele>812.79998779297</ele>
        <time>2019-10-29T12:36:25Z</time>
      </trkpt>
      <trkpt lat="43.93249" lon="6.2427">
        <ele>811</ele>
        <time>2019-10-29T12:36:46Z</time>
      </trkpt>
      <trkpt lat="43.9325" lon="6.24274">
        <ele>812.40002441406</ele>
        <time>2019-10-29T12:37:15Z</time>
      </trkpt>
      <trkpt lat="43.93255" lon="6.24274">
        <ele>812.40002441406</ele>
        <time>2019-10-29T12:37:26Z</time>
      </trkpt>
      <trkpt lat="43.93259" lon="6.24277">
        <ele>812.40002441406</ele>
        <time>2019-10-29T12:37:40Z</time>
      </trkpt>
      <trkpt lat="43.93245" lon="6.24274">
        <ele>812.40002441406</ele>
        <time>2019-10-29T12:38:21Z</time>
      </trkpt>
      <trkpt lat="43.93232" lon="6.24272">
        <ele>812.59997558594</ele>
        <time>2019-10-29T12:38:52Z</time>
      </trkpt>
      <trkpt lat="43.93229" lon="6.24253">
        <ele>813.40002441406</ele>
        <time>2019-10-29T12:39:19Z</time>
      </trkpt>
      <trkpt lat="43.93224" lon="6.24246">
        <ele>814.20001220703</ele>
        <time>2019-10-29T12:39:31Z</time>
      </trkpt>
      <trkpt lat="43.93202" lon="6.24235">
        <ele>816</ele>
        <time>2019-10-29T12:39:59Z</time>
      </trkpt>
      <trkpt lat="43.93205" lon="6.24235">
        <ele>816.59997558594</ele>
        <time>2019-10-29T12:40:07Z</time>
      </trkpt>
      <trkpt lat="43.93201" lon="6.24238">
        <ele>816.79998779297</ele>
        <time>2019-10-29T12:40:12Z</time>
      </trkpt>
      <trkpt lat="43.93214" lon="6.24244">
        <ele>818.20001220703</ele>
        <time>2019-10-29T12:40:34Z</time>
      </trkpt>
      <trkpt lat="43.93215" lon="6.24254">
        <ele>820.20001220703</ele>
        <time>2019-10-29T12:40:56Z</time>
      </trkpt>
      <trkpt lat="43.93211" lon="6.24255">
        <ele>821</ele>
        <time>2019-10-29T12:41:18Z</time>
      </trkpt>
      <trkpt lat="43.93207" lon="6.24258">
        <ele>821.20001220703</ele>
        <time>2019-10-29T12:41:49Z</time>
      </trkpt>
      <trkpt lat="43.93213" lon="6.2426">
        <ele>820.59997558594</ele>
        <time>2019-10-29T12:42:04Z</time>
      </trkpt>
      <trkpt lat="43.93203" lon="6.24244">
        <ele>819.59997558594</ele>
        <time>2019-10-29T12:42:27Z</time>
      </trkpt>
      <trkpt lat="43.93202" lon="6.24244">
        <ele>819.40002441406</ele>
        <time>2019-10-29T12:42:28Z</time>
      </trkpt>
      <trkpt lat="43.93196" lon="6.24231">
        <ele>817.79998779297</ele>
        <time>2019-10-29T12:42:43Z</time>
      </trkpt>
      <trkpt lat="43.93194" lon="6.24231">
        <ele>817.40002441406</ele>
        <time>2019-10-29T12:42:59Z</time>
      </trkpt>
      <trkpt lat="43.93195" lon="6.2423">
        <ele>817.79998779297</ele>
        <time>2019-10-29T12:43:36Z</time>
      </trkpt>
      <trkpt lat="43.93196" lon="6.24227">
        <ele>817.79998779297</ele>
        <time>2019-10-29T12:43:40Z</time>
      </trkpt>
      <trkpt lat="43.932" lon="6.24212">
        <ele>818.59997558594</ele>
        <time>2019-10-29T12:44:03Z</time>
      </trkpt>
      <trkpt lat="43.93222" lon="6.24208">
        <ele>820.59997558594</ele>
        <time>2019-10-29T12:44:28Z</time>
      </trkpt>
      <trkpt lat="43.9323" lon="6.24199">
        <ele>822</ele>
        <time>2019-10-29T12:44:51Z</time>
      </trkpt>
      <trkpt lat="43.93258" lon="6.24199">
        <ele>823.40002441406</ele>
        <time>2019-10-29T12:45:14Z</time>
      </trkpt>
      <trkpt lat="43.93285" lon="6.24211">
        <ele>825.20001220703</ele>
        <time>2019-10-29T12:45:47Z</time>
      </trkpt>
      <trkpt lat="43.93302" lon="6.2422">
        <ele>826.20001220703</ele>
        <time>2019-10-29T12:46:07Z</time>
      </trkpt>
      <trkpt lat="43.93303" lon="6.24225">
        <ele>827</ele>
        <time>2019-10-29T12:46:27Z</time>
      </trkpt>
      <trkpt lat="43.93307" lon="6.24218">
        <ele>827</ele>
        <time>2019-10-29T12:46:53Z</time>
      </trkpt>
      <trkpt lat="43.93318" lon="6.24222">
        <ele>827.20001220703</ele>
        <time>2019-10-29T12:47:18Z</time>
      </trkpt>
      <trkpt lat="43.93318" lon="6.24221">
        <ele>827</ele>
        <time>2019-10-29T12:47:23Z</time>
      </trkpt>
      <trkpt lat="43.93314" lon="6.24218">
        <ele>827.20001220703</ele>
        <time>2019-10-29T12:47:53Z</time>
      </trkpt>
      <trkpt lat="43.93315" lon="6.24225">
        <ele>827.40002441406</ele>
        <time>2019-10-29T12:48:18Z</time>
      </trkpt>
      <trkpt lat="43.93317" lon="6.24212">
        <ele>829.79998779297</ele>
        <time>2019-10-29T12:48:47Z</time>
      </trkpt>
      <trkpt lat="43.93321" lon="6.24205">
        <ele>829.59997558594</ele>
        <time>2019-10-29T12:49:13Z</time>
      </trkpt>
      <trkpt lat="43.9331" lon="6.24207">
        <ele>829.79998779297</ele>
        <time>2019-10-29T12:49:28Z</time>
      </trkpt>
      <trkpt lat="43.93307" lon="6.2421">
        <ele>829.79998779297</ele>
        <time>2019-10-29T12:49:32Z</time>
      </trkpt>
      <trkpt lat="43.93308" lon="6.24212">
        <ele>830</ele>
        <time>2019-10-29T12:49:34Z</time>
      </trkpt>
      <trkpt lat="43.93307" lon="6.24216">
        <ele>830</ele>
        <time>2019-10-29T12:49:38Z</time>
      </trkpt>
      <trkpt lat="43.93317" lon="6.24223">
        <ele>827.79998779297</ele>
        <time>2019-10-29T12:49:57Z</time>
      </trkpt>
      <trkpt lat="43.93322" lon="6.24217">
        <ele>828.79998779297</ele>
        <time>2019-10-29T12:50:32Z</time>
      </trkpt>
      <trkpt lat="43.93321" lon="6.24219">
        <ele>828.79998779297</ele>
        <time>2019-10-29T12:50:36Z</time>
      </trkpt>
      <trkpt lat="43.93317" lon="6.24219">
        <ele>828.79998779297</ele>
        <time>2019-10-29T12:50:40Z</time>
      </trkpt>
      <trkpt lat="43.93317" lon="6.24217">
        <ele>829.59997558594</ele>
        <time>2019-10-29T12:51:15Z</time>
      </trkpt>
      <trkpt lat="43.9332" lon="6.24215">
        <ele>829.79998779297</ele>
        <time>2019-10-29T12:51:20Z</time>
      </trkpt>
      <trkpt lat="43.93332" lon="6.24216">
        <ele>829.59997558594</ele>
        <time>2019-10-29T12:51:38Z</time>
      </trkpt>
      <trkpt lat="43.93332" lon="6.24213">
        <ele>829.59997558594</ele>
        <time>2019-10-29T12:51:45Z</time>
      </trkpt>
      <trkpt lat="43.93329" lon="6.24217">
        <ele>829.40002441406</ele>
        <time>2019-10-29T12:52:08Z</time>
      </trkpt>
      <trkpt lat="43.93328" lon="6.24221">
        <ele>829.40002441406</ele>
        <time>2019-10-29T12:52:13Z</time>
      </trkpt>
      <trkpt lat="43.9332" lon="6.24219">
        <ele>829.40002441406</ele>
        <time>2019-10-29T12:52:37Z</time>
      </trkpt>
      <trkpt lat="43.93319" lon="6.2422">
        <ele>831</ele>
        <time>2019-10-29T12:53:04Z</time>
      </trkpt>
      <trkpt lat="43.93325" lon="6.2422">
        <ele>829.59997558594</ele>
        <time>2019-10-29T12:53:40Z</time>
      </trkpt>
      <trkpt lat="43.93315" lon="6.24221">
        <ele>829.20001220703</ele>
        <time>2019-10-29T12:54:02Z</time>
      </trkpt>
      <trkpt lat="43.9332" lon="6.24214">
        <ele>830</ele>
        <time>2019-10-29T12:54:33Z</time>
      </trkpt>
      <trkpt lat="43.93321" lon="6.24207">
        <ele>831.40002441406</ele>
        <time>2019-10-29T12:55:08Z</time>
      </trkpt>
      <trkpt lat="43.9332" lon="6.24213">
        <ele>831.40002441406</ele>
        <time>2019-10-29T12:55:48Z</time>
      </trkpt>
      <trkpt lat="43.93317" lon="6.24205">
        <ele>831.59997558594</ele>
        <time>2019-10-29T12:56:28Z</time>
      </trkpt>
      <trkpt lat="43.93319" lon="6.24207">
        <ele>831.79998779297</ele>
        <time>2019-10-29T12:57:15Z</time>
      </trkpt>
      <trkpt lat="43.93326" lon="6.24219">
        <ele>831</ele>
        <time>2019-10-29T12:57:58Z</time>
      </trkpt>
      <trkpt lat="43.93336" lon="6.24216">
        <ele>830.79998779297</ele>
        <time>2019-10-29T12:58:32Z</time>
      </trkpt>
      <trkpt lat="43.93348" lon="6.24213">
        <ele>831.20001220703</ele>
        <time>2019-10-29T12:59:12Z</time>
      </trkpt>
      <trkpt lat="43.93349" lon="6.24212">
        <ele>831.40002441406</ele>
        <time>2019-10-29T12:59:14Z</time>
      </trkpt>
      <trkpt lat="43.9337" lon="6.24209">
        <ele>833.20001220703</ele>
        <time>2019-10-29T12:59:43Z</time>
      </trkpt>
      <trkpt lat="43.93388" lon="6.24222">
        <ele>835.20001220703</ele>
        <time>2019-10-29T13:00:17Z</time>
      </trkpt>
      <trkpt lat="43.93405" lon="6.24211">
        <ele>837.20001220703</ele>
        <time>2019-10-29T13:00:46Z</time>
      </trkpt>
      <trkpt lat="43.93432" lon="6.24199">
        <ele>839</ele>
        <time>2019-10-29T13:01:19Z</time>
      </trkpt>
      <trkpt lat="43.93448" lon="6.24183">
        <ele>840.79998779297</ele>
        <time>2019-10-29T13:01:47Z</time>
      </trkpt>
      <trkpt lat="43.93472" lon="6.24174">
        <ele>842.20001220703</ele>
        <time>2019-10-29T13:02:19Z</time>
      </trkpt>
      <trkpt lat="43.93477" lon="6.24169">
        <ele>842.79998779297</ele>
        <time>2019-10-29T13:02:29Z</time>
      </trkpt>
      <trkpt lat="43.93498" lon="6.24166">
        <ele>844.40002441406</ele>
        <time>2019-10-29T13:02:57Z</time>
      </trkpt>
      <trkpt lat="43.93514" lon="6.24181">
        <ele>846.20001220703</ele>
        <time>2019-10-29T13:03:25Z</time>
      </trkpt>
      <trkpt lat="43.93525" lon="6.24183">
        <ele>847.59997558594</ele>
        <time>2019-10-29T13:03:46Z</time>
      </trkpt>
      <trkpt lat="43.93533" lon="6.24196">
        <ele>848.40002441406</ele>
        <time>2019-10-29T13:04:07Z</time>
      </trkpt>
      <trkpt lat="43.93545" lon="6.24197">
        <ele>849.59997558594</ele>
        <time>2019-10-29T13:04:26Z</time>
      </trkpt>
      <trkpt lat="43.93559" lon="6.24203">
        <ele>850.40002441406</ele>
        <time>2019-10-29T13:04:51Z</time>
      </trkpt>
      <trkpt lat="43.93577" lon="6.24186">
        <ele>851.40002441406</ele>
        <time>2019-10-29T13:05:19Z</time>
      </trkpt>
      <trkpt lat="43.9359" lon="6.24174">
        <ele>852.59997558594</ele>
        <time>2019-10-29T13:05:44Z</time>
      </trkpt>
      <trkpt lat="43.93593" lon="6.2417">
        <ele>852.79998779297</ele>
        <time>2019-10-29T13:05:49Z</time>
      </trkpt>
      <trkpt lat="43.93597" lon="6.24165">
        <ele>853</ele>
        <time>2019-10-29T13:05:55Z</time>
      </trkpt>
      <trkpt lat="43.93605" lon="6.24156">
        <ele>853.40002441406</ele>
        <time>2019-10-29T13:06:04Z</time>
      </trkpt>
      <trkpt lat="43.93623" lon="6.24131">
        <ele>854.59997558594</ele>
        <time>2019-10-29T13:06:31Z</time>
      </trkpt>
      <trkpt lat="43.93642" lon="6.24115">
        <ele>855.40002441406</ele>
        <time>2019-10-29T13:06:55Z</time>
      </trkpt>
      <trkpt lat="43.93651" lon="6.2411">
        <ele>855.79998779297</ele>
        <time>2019-10-29T13:07:14Z</time>
      </trkpt>
      <trkpt lat="43.93657" lon="6.24113">
        <ele>856.20001220703</ele>
        <time>2019-10-29T13:07:33Z</time>
      </trkpt>
      <trkpt lat="43.9366" lon="6.24108">
        <ele>856.40002441406</ele>
        <time>2019-10-29T13:07:54Z</time>
      </trkpt>
      <trkpt lat="43.93665" lon="6.24092">
        <ele>856.59997558594</ele>
        <time>2019-10-29T13:08:08Z</time>
      </trkpt>
      <trkpt lat="43.93671" lon="6.2408">
        <ele>857.79998779297</ele>
        <time>2019-10-29T13:08:31Z</time>
      </trkpt>
      <trkpt lat="43.93684" lon="6.24074">
        <ele>857.79998779297</ele>
        <time>2019-10-29T13:09:00Z</time>
      </trkpt>
      <trkpt lat="43.93683" lon="6.24075">
        <ele>857.79998779297</ele>
        <time>2019-10-29T13:09:02Z</time>
      </trkpt>
      <trkpt lat="43.93681" lon="6.24075">
        <ele>850.79998779297</ele>
        <time>2019-10-29T13:09:05Z</time>
      </trkpt>
      <trkpt lat="43.9368" lon="6.24075">
        <ele>850.79998779297</ele>
        <time>2019-10-29T13:09:06Z</time>
      </trkpt>
      <trkpt lat="43.93677" lon="6.24071">
        <ele>850.59997558594</ele>
        <time>2019-10-29T13:09:17Z</time>
      </trkpt>
      <trkpt lat="43.93675" lon="6.24055">
        <ele>851</ele>
        <time>2019-10-29T13:09:34Z</time>
      </trkpt>
      <trkpt lat="43.93674" lon="6.24033">
        <ele>851.59997558594</ele>
        <time>2019-10-29T13:09:54Z</time>
      </trkpt>
      <trkpt lat="43.93688" lon="6.24004">
        <ele>853</ele>
        <time>2019-10-29T13:10:23Z</time>
      </trkpt>
      <trkpt lat="43.93696" lon="6.23985">
        <ele>853.79998779297</ele>
        <time>2019-10-29T13:10:48Z</time>
      </trkpt>
      <trkpt lat="43.93705" lon="6.23967">
        <ele>855.40002441406</ele>
        <time>2019-10-29T13:11:17Z</time>
      </trkpt>
      <trkpt lat="43.93723" lon="6.23945">
        <ele>856</ele>
        <time>2019-10-29T13:11:43Z</time>
      </trkpt>
      <trkpt lat="43.93733" lon="6.23926">
        <ele>857</ele>
        <time>2019-10-29T13:12:02Z</time>
      </trkpt>
      <trkpt lat="43.93729" lon="6.23909">
        <ele>857.79998779297</ele>
        <time>2019-10-29T13:12:18Z</time>
      </trkpt>
      <trkpt lat="43.93723" lon="6.23897">
        <ele>858.59997558594</ele>
        <time>2019-10-29T13:12:32Z</time>
      </trkpt>
      <trkpt lat="43.93709" lon="6.2387">
        <ele>860.20001220703</ele>
        <time>2019-10-29T13:13:02Z</time>
      </trkpt>
      <trkpt lat="43.93704" lon="6.2386">
        <ele>861</ele>
        <time>2019-10-29T13:13:17Z</time>
      </trkpt>
      <trkpt lat="43.93689" lon="6.23845">
        <ele>862.20001220703</ele>
        <time>2019-10-29T13:13:38Z</time>
      </trkpt>
      <trkpt lat="43.93679" lon="6.23815">
        <ele>864</ele>
        <time>2019-10-29T13:14:05Z</time>
      </trkpt>
      <trkpt lat="43.93676" lon="6.23788">
        <ele>865.59997558594</ele>
        <time>2019-10-29T13:14:29Z</time>
      </trkpt>
      <trkpt lat="43.93679" lon="6.23786">
        <ele>865.79998779297</ele>
        <time>2019-10-29T13:14:32Z</time>
      </trkpt>
      <trkpt lat="43.93693" lon="6.23769">
        <ele>865.79998779297</ele>
        <time>2019-10-29T13:14:56Z</time>
      </trkpt>
      <trkpt lat="43.93689" lon="6.23765">
        <ele>866</ele>
        <time>2019-10-29T13:15:18Z</time>
      </trkpt>
      <trkpt lat="43.9369" lon="6.23735">
        <ele>868.20001220703</ele>
        <time>2019-10-29T13:15:50Z</time>
      </trkpt>
      <trkpt lat="43.93693" lon="6.23712">
        <ele>869.79998779297</ele>
        <time>2019-10-29T13:16:13Z</time>
      </trkpt>
      <trkpt lat="43.93702" lon="6.23696">
        <ele>871</ele>
        <time>2019-10-29T13:16:31Z</time>
      </trkpt>
      <trkpt lat="43.93711" lon="6.23689">
        <ele>872.40002441406</ele>
        <time>2019-10-29T13:16:50Z</time>
      </trkpt>
      <trkpt lat="43.93718" lon="6.23678">
        <ele>873</ele>
        <time>2019-10-29T13:17:14Z</time>
      </trkpt>
      <trkpt lat="43.93726" lon="6.23672">
        <ele>874.40002441406</ele>
        <time>2019-10-29T13:17:37Z</time>
      </trkpt>
      <trkpt lat="43.93741" lon="6.23656">
        <ele>875</ele>
        <time>2019-10-29T13:17:59Z</time>
      </trkpt>
      <trkpt lat="43.93755" lon="6.23642">
        <ele>877</ele>
        <time>2019-10-29T13:18:21Z</time>
      </trkpt>
      <trkpt lat="43.93765" lon="6.2363">
        <ele>878.40002441406</ele>
        <time>2019-10-29T13:18:39Z</time>
      </trkpt>
      <trkpt lat="43.93772" lon="6.23615">
        <ele>879.20001220703</ele>
        <time>2019-10-29T13:18:55Z</time>
      </trkpt>
      <trkpt lat="43.93774" lon="6.23595">
        <ele>880.40002441406</ele>
        <time>2019-10-29T13:19:13Z</time>
      </trkpt>
      <trkpt lat="43.9377" lon="6.23569">
        <ele>881</ele>
        <time>2019-10-29T13:19:36Z</time>
      </trkpt>
      <trkpt lat="43.93777" lon="6.2354">
        <ele>882.79998779297</ele>
        <time>2019-10-29T13:20:03Z</time>
      </trkpt>
      <trkpt lat="43.9378" lon="6.23529">
        <ele>883.40002441406</ele>
        <time>2019-10-29T13:20:25Z</time>
      </trkpt>
      <trkpt lat="43.93788" lon="6.23522">
        <ele>882.79998779297</ele>
        <time>2019-10-29T13:21:11Z</time>
      </trkpt>
      <trkpt lat="43.938" lon="6.23504">
        <ele>879.59997558594</ele>
        <time>2019-10-29T13:21:35Z</time>
      </trkpt>
      <trkpt lat="43.93812" lon="6.23495">
        <ele>876.79998779297</ele>
        <time>2019-10-29T13:21:56Z</time>
      </trkpt>
      <trkpt lat="43.93817" lon="6.23475">
        <ele>873.79998779297</ele>
        <time>2019-10-29T13:22:18Z</time>
      </trkpt>
      <trkpt lat="43.93809" lon="6.23455">
        <ele>870.79998779297</ele>
        <time>2019-10-29T13:22:42Z</time>
      </trkpt>
      <trkpt lat="43.93808" lon="6.23433">
        <ele>867.59997558594</ele>
        <time>2019-10-29T13:23:03Z</time>
      </trkpt>
      <trkpt lat="43.9382" lon="6.23413">
        <ele>864.59997558594</ele>
        <time>2019-10-29T13:23:24Z</time>
      </trkpt>
      <trkpt lat="43.93825" lon="6.23397">
        <ele>862.40002441406</ele>
        <time>2019-10-29T13:23:40Z</time>
      </trkpt>
      <trkpt lat="43.93836" lon="6.23366">
        <ele>859.20001220703</ele>
        <time>2019-10-29T13:24:06Z</time>
      </trkpt>
      <trkpt lat="43.93838" lon="6.23343">
        <ele>856.20001220703</ele>
        <time>2019-10-29T13:24:27Z</time>
      </trkpt>
      <trkpt lat="43.93837" lon="6.23324">
        <ele>854</ele>
        <time>2019-10-29T13:24:48Z</time>
      </trkpt>
      <trkpt lat="43.9385" lon="6.23317">
        <ele>850.79998779297</ele>
        <time>2019-10-29T13:25:10Z</time>
      </trkpt>
      <trkpt lat="43.93865" lon="6.23325">
        <ele>847.79998779297</ele>
        <time>2019-10-29T13:25:34Z</time>
      </trkpt>
      <trkpt lat="43.93883" lon="6.23321">
        <ele>845.40002441406</ele>
        <time>2019-10-29T13:25:59Z</time>
      </trkpt>
      <trkpt lat="43.93898" lon="6.23322">
        <ele>842.40002441406</ele>
        <time>2019-10-29T13:26:24Z</time>
      </trkpt>
      <trkpt lat="43.93917" lon="6.23322">
        <ele>839.40002441406</ele>
        <time>2019-10-29T13:26:49Z</time>
      </trkpt>
      <trkpt lat="43.93934" lon="6.23323">
        <ele>836.40002441406</ele>
        <time>2019-10-29T13:27:11Z</time>
      </trkpt>
      <trkpt lat="43.9395" lon="6.23321">
        <ele>833.59997558594</ele>
        <time>2019-10-29T13:27:33Z</time>
      </trkpt>
      <trkpt lat="43.93965" lon="6.23333">
        <ele>831.79998779297</ele>
        <time>2019-10-29T13:27:51Z</time>
      </trkpt>
      <trkpt lat="43.93979" lon="6.23337">
        <ele>829.40002441406</ele>
        <time>2019-10-29T13:28:08Z</time>
      </trkpt>
      <trkpt lat="43.93992" lon="6.23341">
        <ele>826.59997558594</ele>
        <time>2019-10-29T13:28:32Z</time>
      </trkpt>
      <trkpt lat="43.94005" lon="6.23348">
        <ele>824.20001220703</ele>
        <time>2019-10-29T13:28:51Z</time>
      </trkpt>
      <trkpt lat="43.94018" lon="6.23362">
        <ele>822.20001220703</ele>
        <time>2019-10-29T13:29:13Z</time>
      </trkpt>
      <trkpt lat="43.94029" lon="6.23367">
        <ele>820</ele>
        <time>2019-10-29T13:29:33Z</time>
      </trkpt>
      <trkpt lat="43.94046" lon="6.23377">
        <ele>817</ele>
        <time>2019-10-29T13:29:55Z</time>
      </trkpt>
      <trkpt lat="43.94059" lon="6.2338">
        <ele>814.79998779297</ele>
        <time>2019-10-29T13:30:14Z</time>
      </trkpt>
      <trkpt lat="43.94077" lon="6.23385">
        <ele>811.79998779297</ele>
        <time>2019-10-29T13:30:38Z</time>
      </trkpt>
      <trkpt lat="43.94086" lon="6.23396">
        <ele>809.79998779297</ele>
        <time>2019-10-29T13:30:55Z</time>
      </trkpt>
      <trkpt lat="43.94099" lon="6.23411">
        <ele>807.40002441406</ele>
        <time>2019-10-29T13:31:19Z</time>
      </trkpt>
      <trkpt lat="43.94109" lon="6.23419">
        <ele>805.59997558594</ele>
        <time>2019-10-29T13:31:40Z</time>
      </trkpt>
      <trkpt lat="43.94116" lon="6.23443">
        <ele>803.20001220703</ele>
        <time>2019-10-29T13:32:05Z</time>
      </trkpt>
      <trkpt lat="43.94116" lon="6.23444">
        <ele>803.20001220703</ele>
        <time>2019-10-29T13:32:06Z</time>
      </trkpt>
      <trkpt lat="43.94116" lon="6.23459">
        <ele>802.20001220703</ele>
        <time>2019-10-29T13:32:22Z</time>
      </trkpt>
      <trkpt lat="43.94124" lon="6.23479">
        <ele>802.20001220703</ele>
        <time>2019-10-29T13:32:42Z</time>
      </trkpt>
      <trkpt lat="43.94132" lon="6.23496">
        <ele>801.59997558594</ele>
        <time>2019-10-29T13:33:02Z</time>
      </trkpt>
      <trkpt lat="43.94143" lon="6.2349">
        <ele>801.20001220703</ele>
        <time>2019-10-29T13:33:20Z</time>
      </trkpt>
      <trkpt lat="43.94145" lon="6.23472">
        <ele>800.59997558594</ele>
        <time>2019-10-29T13:33:56Z</time>
      </trkpt>
      <trkpt lat="43.94149" lon="6.23456">
        <ele>800.40002441406</ele>
        <time>2019-10-29T13:34:16Z</time>
      </trkpt>
      <trkpt lat="43.94147" lon="6.2345">
        <ele>799.79998779297</ele>
        <time>2019-10-29T13:35:10Z</time>
      </trkpt>
      <trkpt lat="43.94149" lon="6.23451">
        <ele>799.59997558594</ele>
        <time>2019-10-29T13:36:15Z</time>
      </trkpt>
      <trkpt lat="43.94153" lon="6.23432">
        <ele>799.20001220703</ele>
        <time>2019-10-29T13:36:30Z</time>
      </trkpt>
      <trkpt lat="43.94163" lon="6.23409">
        <ele>798.79998779297</ele>
        <time>2019-10-29T13:36:49Z</time>
      </trkpt>
      <trkpt lat="43.94166" lon="6.23385">
        <ele>798.40002441406</ele>
        <time>2019-10-29T13:37:08Z</time>
      </trkpt>
      <trkpt lat="43.94153" lon="6.23368">
        <ele>798</ele>
        <time>2019-10-29T13:37:27Z</time>
      </trkpt>
      <trkpt lat="43.94151" lon="6.23342">
        <ele>797.59997558594</ele>
        <time>2019-10-29T13:37:45Z</time>
      </trkpt>
      <trkpt lat="43.94142" lon="6.23316">
        <ele>797</ele>
        <time>2019-10-29T13:38:06Z</time>
      </trkpt>
      <trkpt lat="43.94127" lon="6.23298">
        <ele>796.79998779297</ele>
        <time>2019-10-29T13:38:25Z</time>
      </trkpt>
      <trkpt lat="43.94118" lon="6.23291">
        <ele>796.79998779297</ele>
        <time>2019-10-29T13:38:46Z</time>
      </trkpt>
      <trkpt lat="43.94106" lon="6.23265">
        <ele>796.20001220703</ele>
        <time>2019-10-29T13:39:14Z</time>
      </trkpt>
      <trkpt lat="43.94093" lon="6.2325">
        <ele>796.20001220703</ele>
        <time>2019-10-29T13:39:41Z</time>
      </trkpt>
      <trkpt lat="43.94093" lon="6.23249">
        <ele>796.20001220703</ele>
        <time>2019-10-29T13:39:42Z</time>
      </trkpt>
      <trkpt lat="43.94114" lon="6.23238">
        <ele>794.79998779297</ele>
        <time>2019-10-29T13:40:10Z</time>
      </trkpt>
      <trkpt lat="43.94129" lon="6.23243">
        <ele>794.40002441406</ele>
        <time>2019-10-29T13:40:26Z</time>
      </trkpt>
      <trkpt lat="43.94145" lon="6.23249">
        <ele>793.79998779297</ele>
        <time>2019-10-29T13:40:46Z</time>
      </trkpt>
      <trkpt lat="43.94167" lon="6.23249">
        <ele>792.79998779297</ele>
        <time>2019-10-29T13:41:10Z</time>
      </trkpt>
      <trkpt lat="43.94185" lon="6.23245">
        <ele>792.40002441406</ele>
        <time>2019-10-29T13:41:31Z</time>
      </trkpt>
      <trkpt lat="43.94202" lon="6.23248">
        <ele>792.20001220703</ele>
        <time>2019-10-29T13:41:49Z</time>
      </trkpt>
      <trkpt lat="43.94219" lon="6.23247">
        <ele>791.79998779297</ele>
        <time>2019-10-29T13:42:10Z</time>
      </trkpt>
      <trkpt lat="43.9423" lon="6.23246">
        <ele>791.79998779297</ele>
        <time>2019-10-29T13:42:24Z</time>
      </trkpt>
      <trkpt lat="43.94248" lon="6.23244">
        <ele>791.40002441406</ele>
        <time>2019-10-29T13:42:44Z</time>
      </trkpt>
      <trkpt lat="43.94264" lon="6.23239">
        <ele>791.20001220703</ele>
        <time>2019-10-29T13:43:03Z</time>
      </trkpt>
      <trkpt lat="43.94283" lon="6.23242">
        <ele>791.40002441406</ele>
        <time>2019-10-29T13:43:26Z</time>
      </trkpt>
      <trkpt lat="43.94301" lon="6.23248">
        <ele>791</ele>
        <time>2019-10-29T13:43:48Z</time>
      </trkpt>
      <trkpt lat="43.94313" lon="6.2325">
        <ele>790.79998779297</ele>
        <time>2019-10-29T13:44:05Z</time>
      </trkpt>
      <trkpt lat="43.94327" lon="6.23254">
        <ele>790.79998779297</ele>
        <time>2019-10-29T13:44:23Z</time>
      </trkpt>
      <trkpt lat="43.94344" lon="6.23255">
        <ele>791</ele>
        <time>2019-10-29T13:44:40Z</time>
      </trkpt>
      <trkpt lat="43.94347" lon="6.23253">
        <ele>791</ele>
        <time>2019-10-29T13:44:43Z</time>
      </trkpt>
      <trkpt lat="43.94347" lon="6.23241">
        <ele>790.59997558594</ele>
        <time>2019-10-29T13:44:56Z</time>
      </trkpt>
      <trkpt lat="43.9434" lon="6.2323">
        <ele>790.59997558594</ele>
        <time>2019-10-29T13:45:17Z</time>
      </trkpt>
      <trkpt lat="43.94336" lon="6.23223">
        <ele>790.79998779297</ele>
        <time>2019-10-29T13:45:56Z</time>
      </trkpt>
      <trkpt lat="43.94332" lon="6.23203">
        <ele>790.59997558594</ele>
        <time>2019-10-29T13:46:15Z</time>
      </trkpt>
      <trkpt lat="43.94326" lon="6.23189">
        <ele>790.59997558594</ele>
        <time>2019-10-29T13:46:33Z</time>
      </trkpt>
      <trkpt lat="43.94319" lon="6.2317">
        <ele>790.59997558594</ele>
        <time>2019-10-29T13:46:51Z</time>
      </trkpt>
      <trkpt lat="43.94306" lon="6.23155">
        <ele>791</ele>
        <time>2019-10-29T13:47:15Z</time>
      </trkpt>
      <trkpt lat="43.94311" lon="6.2313">
        <ele>790.40002441406</ele>
        <time>2019-10-29T13:47:36Z</time>
      </trkpt>
      <trkpt lat="43.9432" lon="6.23122">
        <ele>787.40002441406</ele>
        <time>2019-10-29T13:48:02Z</time>
      </trkpt>
      <trkpt lat="43.94316" lon="6.23145">
        <ele>784.40002441406</ele>
        <time>2019-10-29T13:48:22Z</time>
      </trkpt>
      <trkpt lat="43.94325" lon="6.23154">
        <ele>782.40002441406</ele>
        <time>2019-10-29T13:48:40Z</time>
      </trkpt>
      <trkpt lat="43.94336" lon="6.23137">
        <ele>779.20001220703</ele>
        <time>2019-10-29T13:49:04Z</time>
      </trkpt>
      <trkpt lat="43.94351" lon="6.23138">
        <ele>776.20001220703</ele>
        <time>2019-10-29T13:49:22Z</time>
      </trkpt>
      <trkpt lat="43.94362" lon="6.23142">
        <ele>773.20001220703</ele>
        <time>2019-10-29T13:49:43Z</time>
      </trkpt>
      <trkpt lat="43.94361" lon="6.23144">
        <ele>773</ele>
        <time>2019-10-29T13:49:45Z</time>
      </trkpt>
      <trkpt lat="43.9436" lon="6.23145">
        <ele>772.59997558594</ele>
        <time>2019-10-29T13:49:48Z</time>
      </trkpt>
      <trkpt lat="43.94345" lon="6.23156">
        <ele>769.40002441406</ele>
        <time>2019-10-29T13:50:05Z</time>
      </trkpt>
      <trkpt lat="43.9434" lon="6.2317">
        <ele>767.40002441406</ele>
        <time>2019-10-29T13:50:16Z</time>
      </trkpt>
      <trkpt lat="43.94342" lon="6.23171">
        <ele>766.59997558594</ele>
        <time>2019-10-29T13:50:21Z</time>
      </trkpt>
      <trkpt lat="43.94355" lon="6.23164">
        <ele>763.40002441406</ele>
        <time>2019-10-29T13:50:45Z</time>
      </trkpt>
      <trkpt lat="43.94371" lon="6.23163">
        <ele>760.59997558594</ele>
        <time>2019-10-29T13:51:10Z</time>
      </trkpt>
      <trkpt lat="43.94386" lon="6.23149">
        <ele>757.40002441406</ele>
        <time>2019-10-29T13:51:34Z</time>
      </trkpt>
      <trkpt lat="43.94388" lon="6.23159">
        <ele>754.79998779297</ele>
        <time>2019-10-29T13:51:50Z</time>
      </trkpt>
      <trkpt lat="43.94392" lon="6.23141">
        <ele>752.20001220703</ele>
        <time>2019-10-29T13:52:08Z</time>
      </trkpt>
      <trkpt lat="43.94395" lon="6.23147">
        <ele>749</ele>
        <time>2019-10-29T13:52:26Z</time>
      </trkpt>
      <trkpt lat="43.94404" lon="6.23162">
        <ele>746.20001220703</ele>
        <time>2019-10-29T13:52:47Z</time>
      </trkpt>
      <trkpt lat="43.94405" lon="6.23137">
        <ele>743.20001220703</ele>
        <time>2019-10-29T13:53:09Z</time>
      </trkpt>
      <trkpt lat="43.94408" lon="6.23125">
        <ele>740</ele>
        <time>2019-10-29T13:53:29Z</time>
      </trkpt>
      <trkpt lat="43.94413" lon="6.23146">
        <ele>737.20001220703</ele>
        <time>2019-10-29T13:53:51Z</time>
      </trkpt>
      <trkpt lat="43.94413" lon="6.23157">
        <ele>735.59997558594</ele>
        <time>2019-10-29T13:54:03Z</time>
      </trkpt>
      <trkpt lat="43.94419" lon="6.23137">
        <ele>732.40002441406</ele>
        <time>2019-10-29T13:54:27Z</time>
      </trkpt>
      <trkpt lat="43.94423" lon="6.23121">
        <ele>729.40002441406</ele>
        <time>2019-10-29T13:54:48Z</time>
      </trkpt>
      <trkpt lat="43.94423" lon="6.23122">
        <ele>726.40002441406</ele>
        <time>2019-10-29T13:55:17Z</time>
      </trkpt>
      <trkpt lat="43.94424" lon="6.23142">
        <ele>725</ele>
        <time>2019-10-29T13:55:34Z</time>
      </trkpt>
      <trkpt lat="43.94428" lon="6.23162">
        <ele>722.40002441406</ele>
        <time>2019-10-29T13:55:54Z</time>
      </trkpt>
      <trkpt lat="43.94431" lon="6.23182">
        <ele>719.40002441406</ele>
        <time>2019-10-29T13:56:16Z</time>
      </trkpt>
      <trkpt lat="43.94444" lon="6.23192">
        <ele>717</ele>
        <time>2019-10-29T13:56:38Z</time>
      </trkpt>
      <trkpt lat="43.94444" lon="6.23199">
        <ele>716.40002441406</ele>
        <time>2019-10-29T13:56:54Z</time>
      </trkpt>
      <trkpt lat="43.94441" lon="6.23173">
        <ele>713.40002441406</ele>
        <time>2019-10-29T13:57:20Z</time>
      </trkpt>
      <trkpt lat="43.9444" lon="6.23151">
        <ele>710.20001220703</ele>
        <time>2019-10-29T13:57:38Z</time>
      </trkpt>
      <trkpt lat="43.94447" lon="6.2314">
        <ele>707.20001220703</ele>
        <time>2019-10-29T13:57:58Z</time>
      </trkpt>
      <trkpt lat="43.94448" lon="6.23159">
        <ele>704.20001220703</ele>
        <time>2019-10-29T13:58:19Z</time>
      </trkpt>
      <trkpt lat="43.94451" lon="6.23146">
        <ele>701.20001220703</ele>
        <time>2019-10-29T13:58:40Z</time>
      </trkpt>
      <trkpt lat="43.94455" lon="6.23162">
        <ele>698</ele>
        <time>2019-10-29T13:58:59Z</time>
      </trkpt>
      <trkpt lat="43.94459" lon="6.23175">
        <ele>695.40002441406</ele>
        <time>2019-10-29T13:59:18Z</time>
      </trkpt>
      <trkpt lat="43.94457" lon="6.23177">
        <ele>694.59997558594</ele>
        <time>2019-10-29T13:59:24Z</time>
      </trkpt>
      <trkpt lat="43.94473" lon="6.23177">
        <ele>691.40002441406</ele>
        <time>2019-10-29T13:59:47Z</time>
      </trkpt>
      <trkpt lat="43.94471" lon="6.23164">
        <ele>690.20001220703</ele>
        <time>2019-10-29T13:59:59Z</time>
      </trkpt>
      <trkpt lat="43.94468" lon="6.23153">
        <ele>689</ele>
        <time>2019-10-29T14:00:12Z</time>
      </trkpt>
      <trkpt lat="43.94471" lon="6.23141">
        <ele>685.79998779297</ele>
        <time>2019-10-29T14:00:40Z</time>
      </trkpt>
      <trkpt lat="43.94472" lon="6.23159">
        <ele>683.40002441406</ele>
        <time>2019-10-29T14:01:01Z</time>
      </trkpt>
      <trkpt lat="43.94474" lon="6.23166">
        <ele>681</ele>
        <time>2019-10-29T14:01:23Z</time>
      </trkpt>
      <trkpt lat="43.94479" lon="6.23156">
        <ele>679.79998779297</ele>
        <time>2019-10-29T14:01:40Z</time>
      </trkpt>
      <trkpt lat="43.94482" lon="6.23148">
        <ele>679</ele>
        <time>2019-10-29T14:01:49Z</time>
      </trkpt>
      <trkpt lat="43.94484" lon="6.2313">
        <ele>676</ele>
        <time>2019-10-29T14:02:11Z</time>
      </trkpt>
      <trkpt lat="43.94492" lon="6.2313">
        <ele>675</ele>
        <time>2019-10-29T14:02:17Z</time>
      </trkpt>
      <trkpt lat="43.94499" lon="6.23131">
        <ele>672.59997558594</ele>
        <time>2019-10-29T14:02:43Z</time>
      </trkpt>
      <trkpt lat="43.94496" lon="6.23138">
        <ele>671.79998779297</ele>
        <time>2019-10-29T14:02:55Z</time>
      </trkpt>
      <trkpt lat="43.94483" lon="6.23155">
        <ele>670</ele>
        <time>2019-10-29T14:03:15Z</time>
      </trkpt>
      <trkpt lat="43.94488" lon="6.23149">
        <ele>668.59997558594</ele>
        <time>2019-10-29T14:03:38Z</time>
      </trkpt>
      <trkpt lat="43.94488" lon="6.23148">
        <ele>668.59997558594</ele>
        <time>2019-10-29T14:03:39Z</time>
      </trkpt>
      <trkpt lat="43.94497" lon="6.23142">
        <ele>666.59997558594</ele>
        <time>2019-10-29T14:04:04Z</time>
      </trkpt>
      <trkpt lat="43.94512" lon="6.23152">
        <ele>664.20001220703</ele>
        <time>2019-10-29T14:04:29Z</time>
      </trkpt>
      <trkpt lat="43.94521" lon="6.23152">
        <ele>662.79998779297</ele>
        <time>2019-10-29T14:04:53Z</time>
      </trkpt>
      <trkpt lat="43.94531" lon="6.23149">
        <ele>661.79998779297</ele>
        <time>2019-10-29T14:05:08Z</time>
      </trkpt>
      <trkpt lat="43.94535" lon="6.2315">
        <ele>661.79998779297</ele>
        <time>2019-10-29T14:05:12Z</time>
      </trkpt>
      <trkpt lat="43.94552" lon="6.23167">
        <ele>659</ele>
        <time>2019-10-29T14:05:43Z</time>
      </trkpt>
      <trkpt lat="43.94554" lon="6.23169">
        <ele>658.20001220703</ele>
        <time>2019-10-29T14:05:48Z</time>
      </trkpt>
      <trkpt lat="43.94558" lon="6.23172">
        <ele>657.40002441406</ele>
        <time>2019-10-29T14:05:53Z</time>
      </trkpt>
      <trkpt lat="43.94555" lon="6.23175">
        <ele>657.40002441406</ele>
        <time>2019-10-29T14:05:56Z</time>
      </trkpt>
      <trkpt lat="43.94537" lon="6.23174">
        <ele>655</ele>
        <time>2019-10-29T14:06:18Z</time>
      </trkpt>
      <trkpt lat="43.94527" lon="6.23177">
        <ele>653.40002441406</ele>
        <time>2019-10-29T14:06:33Z</time>
      </trkpt>
      <trkpt lat="43.94528" lon="6.23178">
        <ele>653.20001220703</ele>
        <time>2019-10-29T14:06:35Z</time>
      </trkpt>
      <trkpt lat="43.94547" lon="6.23187">
        <ele>651.79998779297</ele>
        <time>2019-10-29T14:06:58Z</time>
      </trkpt>
      <trkpt lat="43.94554" lon="6.23194">
        <ele>649.20001220703</ele>
        <time>2019-10-29T14:07:21Z</time>
      </trkpt>
      <trkpt lat="43.94556" lon="6.23197">
        <ele>649</ele>
        <time>2019-10-29T14:07:23Z</time>
      </trkpt>
      <trkpt lat="43.94557" lon="6.23203">
        <ele>648.40002441406</ele>
        <time>2019-10-29T14:07:27Z</time>
      </trkpt>
      <trkpt lat="43.94565" lon="6.23213">
        <ele>645.79998779297</ele>
        <time>2019-10-29T14:07:49Z</time>
      </trkpt>
      <trkpt lat="43.94572" lon="6.23222">
        <ele>644.79998779297</ele>
        <time>2019-10-29T14:08:00Z</time>
      </trkpt>
      <trkpt lat="43.94582" lon="6.23219">
        <ele>643.20001220703</ele>
        <time>2019-10-29T14:08:18Z</time>
      </trkpt>
      <trkpt lat="43.94582" lon="6.23219">
        <ele>643</ele>
        <time>2019-10-29T14:08:20Z</time>
      </trkpt>
      <trkpt lat="43.94582" lon="6.2322">
        <ele>642.59997558594</ele>
        <time>2019-10-29T14:08:25Z</time>
      </trkpt>
      <trkpt lat="43.9459" lon="6.23216">
        <ele>641.40002441406</ele>
        <time>2019-10-29T14:08:50Z</time>
      </trkpt>
      <trkpt lat="43.94604" lon="6.23215">
        <ele>638.79998779297</ele>
        <time>2019-10-29T14:09:18Z</time>
      </trkpt>
      <trkpt lat="43.94612" lon="6.23226">
        <ele>637.40002441406</ele>
        <time>2019-10-29T14:09:54Z</time>
      </trkpt>
      <trkpt lat="43.94624" lon="6.23234">
        <ele>636.79998779297</ele>
        <time>2019-10-29T14:10:20Z</time>
      </trkpt>
      <trkpt lat="43.94648" lon="6.23225">
        <ele>637</ele>
        <time>2019-10-29T14:10:39Z</time>
      </trkpt>
      <trkpt lat="43.94651" lon="6.23219">
        <ele>637</ele>
        <time>2019-10-29T14:11:08Z</time>
      </trkpt>
      <trkpt lat="43.94652" lon="6.23218">
        <ele>636.59997558594</ele>
        <time>2019-10-29T14:11:20Z</time>
      </trkpt>
      <trkpt lat="43.94664" lon="6.23216">
        <ele>635.40002441406</ele>
        <time>2019-10-29T14:11:43Z</time>
      </trkpt>
      <trkpt lat="43.94679" lon="6.23221">
        <ele>632.40002441406</ele>
        <time>2019-10-29T14:12:05Z</time>
      </trkpt>
      <trkpt lat="43.94688" lon="6.23231">
        <ele>630.20001220703</ele>
        <time>2019-10-29T14:12:27Z</time>
      </trkpt>
      <trkpt lat="43.94704" lon="6.2323">
        <ele>629</ele>
        <time>2019-10-29T14:12:52Z</time>
      </trkpt>
      <trkpt lat="43.94712" lon="6.23224">
        <ele>628</ele>
        <time>2019-10-29T14:13:01Z</time>
      </trkpt>
      <trkpt lat="43.94713" lon="6.23224">
        <ele>627.79998779297</ele>
        <time>2019-10-29T14:13:17Z</time>
      </trkpt>
      <trkpt lat="43.94712" lon="6.23203">
        <ele>627.59997558594</ele>
        <time>2019-10-29T14:13:40Z</time>
      </trkpt>
      <trkpt lat="43.94721" lon="6.23195">
        <ele>627.40002441406</ele>
        <time>2019-10-29T14:14:03Z</time>
      </trkpt>
      <trkpt lat="43.94726" lon="6.23196">
        <ele>627.20001220703</ele>
        <time>2019-10-29T14:14:28Z</time>
      </trkpt>
      <trkpt lat="43.94723" lon="6.23193">
        <ele>626.59997558594</ele>
        <time>2019-10-29T14:14:59Z</time>
      </trkpt>
      <trkpt lat="43.94723" lon="6.23192">
        <ele>626.59997558594</ele>
        <time>2019-10-29T14:15:00Z</time>
      </trkpt>
      <trkpt lat="43.94723" lon="6.23194">
        <ele>626.59997558594</ele>
        <time>2019-10-29T14:15:18Z</time>
      </trkpt>
      <trkpt lat="43.94738" lon="6.23178">
        <ele>626.20001220703</ele>
        <time>2019-10-29T14:15:44Z</time>
      </trkpt>
      <trkpt lat="43.94742" lon="6.23172">
        <ele>626.20001220703</ele>
        <time>2019-10-29T14:15:49Z</time>
      </trkpt>
      <trkpt lat="43.94746" lon="6.23142">
        <ele>626.20001220703</ele>
        <time>2019-10-29T14:16:14Z</time>
      </trkpt>
      <trkpt lat="43.94723" lon="6.23104">
        <ele>626.59997558594</ele>
        <time>2019-10-29T14:16:42Z</time>
      </trkpt>
      <trkpt lat="43.94723" lon="6.23076">
        <ele>626.79998779297</ele>
        <time>2019-10-29T14:17:04Z</time>
      </trkpt>
      <trkpt lat="43.94722" lon="6.23075">
        <ele>626.79998779297</ele>
        <time>2019-10-29T14:17:05Z</time>
      </trkpt>
      <trkpt lat="43.9472" lon="6.23046">
        <ele>625.40002441406</ele>
        <time>2019-10-29T14:17:26Z</time>
      </trkpt>
      <trkpt lat="43.94726" lon="6.23026">
        <ele>624.59997558594</ele>
        <time>2019-10-29T14:17:44Z</time>
      </trkpt>
      <trkpt lat="43.94736" lon="6.23004">
        <ele>623.59997558594</ele>
        <time>2019-10-29T14:18:01Z</time>
      </trkpt>
      <trkpt lat="43.94742" lon="6.22974">
        <ele>621.79998779297</ele>
        <time>2019-10-29T14:18:24Z</time>
      </trkpt>
      <trkpt lat="43.94745" lon="6.22952">
        <ele>620.59997558594</ele>
        <time>2019-10-29T14:18:44Z</time>
      </trkpt>
      <trkpt lat="43.9475" lon="6.22932">
        <ele>619.59997558594</ele>
        <time>2019-10-29T14:19:02Z</time>
      </trkpt>
      <trkpt lat="43.94761" lon="6.22913">
        <ele>618.40002441406</ele>
        <time>2019-10-29T14:19:25Z</time>
      </trkpt>
      <trkpt lat="43.94765" lon="6.22891">
        <ele>617.40002441406</ele>
        <time>2019-10-29T14:19:44Z</time>
      </trkpt>
      <trkpt lat="43.94778" lon="6.2287">
        <ele>616.40002441406</ele>
        <time>2019-10-29T14:20:06Z</time>
      </trkpt>
      <trkpt lat="43.94789" lon="6.22847">
        <ele>615.59997558594</ele>
        <time>2019-10-29T14:20:26Z</time>
      </trkpt>
      <trkpt lat="43.94791" lon="6.22826">
        <ele>614.20001220703</ele>
        <time>2019-10-29T14:20:50Z</time>
      </trkpt>
      <trkpt lat="43.94774" lon="6.22806">
        <ele>613.40002441406</ele>
        <time>2019-10-29T14:21:16Z</time>
      </trkpt>
      <trkpt lat="43.94762" lon="6.22784">
        <ele>612</ele>
        <time>2019-10-29T14:21:42Z</time>
      </trkpt>
      <trkpt lat="43.94752" lon="6.2276">
        <ele>611.20001220703</ele>
        <time>2019-10-29T14:22:07Z</time>
      </trkpt>
      <trkpt lat="43.94737" lon="6.22745">
        <ele>610.79998779297</ele>
        <time>2019-10-29T14:22:35Z</time>
      </trkpt>
      <trkpt lat="43.94725" lon="6.22723">
        <ele>609.59997558594</ele>
        <time>2019-10-29T14:23:00Z</time>
      </trkpt>
      <trkpt lat="43.9473" lon="6.22711">
        <ele>609.20001220703</ele>
        <time>2019-10-29T14:23:11Z</time>
      </trkpt>
      <trkpt lat="43.94732" lon="6.22707">
        <ele>609.20001220703</ele>
        <time>2019-10-29T14:23:14Z</time>
      </trkpt>
      <trkpt lat="43.94714" lon="6.22686">
        <ele>608.40002441406</ele>
        <time>2019-10-29T14:23:39Z</time>
      </trkpt>
      <trkpt lat="43.94701" lon="6.2266">
        <ele>607.20001220703</ele>
        <time>2019-10-29T14:24:06Z</time>
      </trkpt>
      <trkpt lat="43.94702" lon="6.22656">
        <ele>606.79998779297</ele>
        <time>2019-10-29T14:24:11Z</time>
      </trkpt>
      <trkpt lat="43.94696" lon="6.22637">
        <ele>606</ele>
        <time>2019-10-29T14:24:29Z</time>
      </trkpt>
      <trkpt lat="43.94697" lon="6.22614">
        <ele>605.79998779297</ele>
        <time>2019-10-29T14:24:48Z</time>
      </trkpt>
      <trkpt lat="43.94698" lon="6.22587">
        <ele>605.40002441406</ele>
        <time>2019-10-29T14:25:17Z</time>
      </trkpt>
      <trkpt lat="43.94714" lon="6.22568">
        <ele>605</ele>
        <time>2019-10-29T14:25:44Z</time>
      </trkpt>
      <trkpt lat="43.9473" lon="6.22549">
        <ele>605.20001220703</ele>
        <time>2019-10-29T14:26:03Z</time>
      </trkpt>
      <trkpt lat="43.94737" lon="6.22549">
        <ele>605.20001220703</ele>
        <time>2019-10-29T14:26:26Z</time>
      </trkpt>
      <trkpt lat="43.94744" lon="6.22561">
        <ele>605</ele>
        <time>2019-10-29T14:26:46Z</time>
      </trkpt>
      <trkpt lat="43.94759" lon="6.22556">
        <ele>604</ele>
        <time>2019-10-29T14:27:08Z</time>
      </trkpt>
      <trkpt lat="43.94765" lon="6.22545">
        <ele>603.59997558594</ele>
        <time>2019-10-29T14:27:19Z</time>
      </trkpt>
      <trkpt lat="43.94776" lon="6.22531">
        <ele>603.20001220703</ele>
        <time>2019-10-29T14:27:35Z</time>
      </trkpt>
      <trkpt lat="43.94788" lon="6.22513">
        <ele>603</ele>
        <time>2019-10-29T14:27:53Z</time>
      </trkpt>
      <trkpt lat="43.94794" lon="6.22494">
        <ele>602.59997558594</ele>
        <time>2019-10-29T14:28:10Z</time>
      </trkpt>
      <trkpt lat="43.94799" lon="6.22477">
        <ele>602</ele>
        <time>2019-10-29T14:28:25Z</time>
      </trkpt>
      <trkpt lat="43.94804" lon="6.22454">
        <ele>601.40002441406</ele>
        <time>2019-10-29T14:28:44Z</time>
      </trkpt>
      <trkpt lat="43.94809" lon="6.22431">
        <ele>601</ele>
        <time>2019-10-29T14:29:04Z</time>
      </trkpt>
      <trkpt lat="43.94812" lon="6.22407">
        <ele>600.79998779297</ele>
        <time>2019-10-29T14:29:23Z</time>
      </trkpt>
      <trkpt lat="43.94812" lon="6.22387">
        <ele>601</ele>
        <time>2019-10-29T14:29:38Z</time>
      </trkpt>
      <trkpt lat="43.94808" lon="6.22371">
        <ele>600.79998779297</ele>
        <time>2019-10-29T14:29:52Z</time>
      </trkpt>
      <trkpt lat="43.94806" lon="6.22347">
        <ele>600.79998779297</ele>
        <time>2019-10-29T14:30:09Z</time>
      </trkpt>
      <trkpt lat="43.94805" lon="6.22324">
        <ele>601.20001220703</ele>
        <time>2019-10-29T14:30:27Z</time>
      </trkpt>
      <trkpt lat="43.94812" lon="6.22305">
        <ele>602</ele>
        <time>2019-10-29T14:30:46Z</time>
      </trkpt>
      <trkpt lat="43.9481" lon="6.22282">
        <ele>602.79998779297</ele>
        <time>2019-10-29T14:31:02Z</time>
      </trkpt>
      <trkpt lat="43.94812" lon="6.22264">
        <ele>603.79998779297</ele>
        <time>2019-10-29T14:31:17Z</time>
      </trkpt>
      <trkpt lat="43.94817" lon="6.22243">
        <ele>604.79998779297</ele>
        <time>2019-10-29T14:31:33Z</time>
      </trkpt>
      <trkpt lat="43.94825" lon="6.22226">
        <ele>606</ele>
        <time>2019-10-29T14:31:51Z</time>
      </trkpt>
      <trkpt lat="43.94827" lon="6.22208">
        <ele>606.79998779297</ele>
        <time>2019-10-29T14:32:07Z</time>
      </trkpt>
      <trkpt lat="43.94829" lon="6.22199">
        <ele>607.40002441406</ele>
        <time>2019-10-29T14:32:21Z</time>
      </trkpt>
      <trkpt lat="43.94823" lon="6.22184">
        <ele>607</ele>
        <time>2019-10-29T14:32:38Z</time>
      </trkpt>
      <trkpt lat="43.94814" lon="6.22178">
        <ele>606.40002441406</ele>
        <time>2019-10-29T14:32:49Z</time>
      </trkpt>
      <trkpt lat="43.94801" lon="6.22176">
        <ele>605.79998779297</ele>
        <time>2019-10-29T14:33:02Z</time>
      </trkpt>
      <trkpt lat="43.94788" lon="6.22172">
        <ele>605.20001220703</ele>
        <time>2019-10-29T14:33:16Z</time>
      </trkpt>
      <trkpt lat="43.94779" lon="6.2218">
        <ele>604.40002441406</ele>
        <time>2019-10-29T14:33:32Z</time>
      </trkpt>
      <trkpt lat="43.9478" lon="6.22184">
        <ele>604.40002441406</ele>
        <time>2019-10-29T14:34:16Z</time>
      </trkpt>
      <trkpt lat="43.94779" lon="6.22183">
        <ele>588.79998779297</ele>
        <time>2019-10-29T14:34:54Z</time>
      </trkpt>
    </trkseg>
  </trk>
</gpx>